<?xml version='1.0' encoding='UTF-8'?><gpx version="1.1" creator="JPX - https://github.com/jenetics/jpx" xmlns="http://www.topografix.com/GPX/1/1"><trk><trkseg><trkpt lat="42.63185463984566" lon="13.542648397384196"><ele>966.9999999999999</ele><time>2026-04-18T10:19:58Z</time></trkpt><trkpt lat="42.63195150799324" lon="13.542640693398214"><ele>967.0</ele><time>2026-04-18T10:21:15Z</time></trkpt><trkpt lat="42.63188078097502" lon="13.542655377984275"><ele>967.0</ele><time>2026-04-18T10:21:22Z</time></trkpt><trkpt lat="42.631932159472235" lon="13.542728763544114"><ele>967.0</ele><time>2026-04-18T10:22:03Z</time></trkpt><trkpt lat="42.63189073231104" lon="13.54265228870878"><ele>966.9999999999999</ele><time>2026-04-18T10:22:10Z</time></trkpt><trkpt lat="42.631983858936394" lon="13.542721409599997"><ele>967.0</ele><time>2026-04-18T10:23:42Z</time></trkpt><trkpt lat="42.63204641078894" lon="13.542689274061749"><ele>968.3333333333333</ele><time>2026-04-18T10:23:44Z</time></trkpt><trkpt lat="42.632121689295325" lon="13.542630865246092"><ele>969.6666666666666</ele><time>2026-04-18T10:23:48Z</time></trkpt><trkpt lat="42.63216509803701" lon="13.542534014470887"><ele>971.0</ele><time>2026-04-18T10:23:50Z</time></trkpt><trkpt lat="42.632190023308496" lon="13.542412460981929"><ele>972.3333333333333</ele><time>2026-04-18T10:23:52Z</time></trkpt><trkpt lat="42.632226916134876" lon="13.542313672180569"><ele>973.6666666666666</ele><time>2026-04-18T10:23:54Z</time></trkpt><trkpt lat="42.63223530489149" lon="13.54222478010955"><ele>975.0</ele><time>2026-04-18T10:23:56Z</time></trkpt><trkpt lat="42.632156853699804" lon="13.542344053893242"><ele>975.0</ele><time>2026-04-18T10:24:00Z</time></trkpt><trkpt lat="42.632142449389434" lon="13.542467885702658"><ele>975.0</ele><time>2026-04-18T10:24:00.999Z</time></trkpt><trkpt lat="42.63210803321277" lon="13.542598033308392"><ele>975.0</ele><time>2026-04-18T10:24:01.999Z</time></trkpt><trkpt lat="42.63207918113811" lon="13.542734770509714"><ele>975.0</ele><time>2026-04-18T10:24:02.999Z</time></trkpt><trkpt lat="42.63206011130497" lon="13.542874740245907"><ele>975.0</ele><time>2026-04-18T10:24:03.999Z</time></trkpt><trkpt lat="42.63208162008447" lon="13.543055150239777"><ele>974.25</ele><time>2026-04-18T10:24:04.999Z</time></trkpt><trkpt lat="42.63214720910651" lon="13.54323145696493"><ele>973.5</ele><time>2026-04-18T10:24:05.999Z</time></trkpt><trkpt lat="42.6322070017702" lon="13.543388982026768"><ele>972.75</ele><time>2026-04-18T10:24:06.999Z</time></trkpt><trkpt lat="42.63225980670759" lon="13.543535190997998"><ele>972.0</ele><time>2026-04-18T10:24:07.999Z</time></trkpt><trkpt lat="42.632308871402365" lon="13.543676708203998"><ele>970.4000000000001</ele><time>2026-04-18T10:24:08.999Z</time></trkpt><trkpt lat="42.6323540821896" lon="13.543810526555887"><ele>968.8000000000001</ele><time>2026-04-18T10:24:09.999Z</time></trkpt><trkpt lat="42.63241396451801" lon="13.543937906671111"><ele>967.2</ele><time>2026-04-18T10:24:10.999Z</time></trkpt><trkpt lat="42.63245009503952" lon="13.544077197480728"><ele>965.6</ele><time>2026-04-18T10:24:11.999Z</time></trkpt><trkpt lat="42.63246211046096" lon="13.54423420458515"><ele>964.0</ele><time>2026-04-18T10:24:12.999Z</time></trkpt><trkpt lat="42.63248221063882" lon="13.544352102471764"><ele>964.0</ele><time>2026-04-18T10:24:13.999Z</time></trkpt><trkpt lat="42.632500784620824" lon="13.544468523744403"><ele>964.0</ele><time>2026-04-18T10:24:14.999Z</time></trkpt><trkpt lat="42.63252941403474" lon="13.544616802786535"><ele>964.0</ele><time>2026-04-18T10:24:15.999Z</time></trkpt><trkpt lat="42.63258573554622" lon="13.544784337601847"><ele>964.0</ele><time>2026-04-18T10:24:16.999Z</time></trkpt><trkpt lat="42.63265741084913" lon="13.544935652487851"><ele>962.5</ele><time>2026-04-18T10:24:17.999Z</time></trkpt><trkpt lat="42.63274760555042" lon="13.545086017370485"><ele>961.0</ele><time>2026-04-18T10:24:18.999Z</time></trkpt><trkpt lat="42.63280196365683" lon="13.545254105019565"><ele>959.5</ele><time>2026-04-18T10:24:19.999Z</time></trkpt><trkpt lat="42.632857525512065" lon="13.545441942595641"><ele>958.0</ele><time>2026-04-18T10:24:20.999Z</time></trkpt><trkpt lat="42.63287285525925" lon="13.545640828426437"><ele>958.0</ele><time>2026-04-18T10:24:21.999Z</time></trkpt><trkpt lat="42.632857842409564" lon="13.545826840973186"><ele>958.0</ele><time>2026-04-18T10:24:22.999Z</time></trkpt><trkpt lat="42.632787035517204" lon="13.545995434754145"><ele>958.0</ele><time>2026-04-18T10:24:23.999Z</time></trkpt><trkpt lat="42.632705270413695" lon="13.54617507477076"><ele>958.0</ele><time>2026-04-18T10:24:24.999Z</time></trkpt><trkpt lat="42.632642393623094" lon="13.546373044509917"><ele>953.0</ele><time>2026-04-18T10:24:25.999Z</time></trkpt><trkpt lat="42.63258734645322" lon="13.546576943248452"><ele>948.0</ele><time>2026-04-18T10:24:26.999Z</time></trkpt><trkpt lat="42.63254426649036" lon="13.546788498410603"><ele>943.0</ele><time>2026-04-18T10:24:27.999Z</time></trkpt><trkpt lat="42.63252357135046" lon="13.546982718067119"><ele>944.25</ele><time>2026-04-18T10:24:28.999Z</time></trkpt><trkpt lat="42.632482133247144" lon="13.547182351334284"><ele>945.5</ele><time>2026-04-18T10:24:29.999Z</time></trkpt><trkpt lat="42.632409914712824" lon="13.547339855500859"><ele>946.75</ele><time>2026-04-18T10:24:31Z</time></trkpt><trkpt lat="42.63233275831455" lon="13.54747373609352"><ele>948.0</ele><time>2026-04-18T10:24:32Z</time></trkpt><trkpt lat="42.632262430715016" lon="13.547618942835465"><ele>948.0</ele><time>2026-04-18T10:24:33Z</time></trkpt><trkpt lat="42.63217546841618" lon="13.547766502255147"><ele>948.0</ele><time>2026-04-18T10:24:34Z</time></trkpt><trkpt lat="42.63215114622814" lon="13.547873898611233"><ele>948.0</ele><time>2026-04-18T10:24:35Z</time></trkpt><trkpt lat="42.63216955082885" lon="13.548006329323721"><ele>948.0</ele><time>2026-04-18T10:24:36Z</time></trkpt><trkpt lat="42.63221928494487" lon="13.548132077038373"><ele>948.0</ele><time>2026-04-18T10:24:37Z</time></trkpt><trkpt lat="42.632264933152314" lon="13.548247659310691"><ele>947.4</ele><time>2026-04-18T10:24:38Z</time></trkpt><trkpt lat="42.63229008448517" lon="13.548391368637583"><ele>946.8</ele><time>2026-04-18T10:24:39Z</time></trkpt><trkpt lat="42.63229179856757" lon="13.548534994188977"><ele>946.2</ele><time>2026-04-18T10:24:40Z</time></trkpt><trkpt lat="42.632223786325206" lon="13.548673189507523"><ele>945.6</ele><time>2026-04-18T10:24:41Z</time></trkpt><trkpt lat="42.632190888772" lon="13.548788762107257"><ele>945.0</ele><time>2026-04-18T10:24:42Z</time></trkpt><trkpt lat="42.63215832590998" lon="13.548912376845678"><ele>945.0</ele><time>2026-04-18T10:24:43Z</time></trkpt><trkpt lat="42.632110482450415" lon="13.54910375069771"><ele>945.0</ele><time>2026-04-18T10:24:44Z</time></trkpt><trkpt lat="42.63207476061096" lon="13.549270549335438"><ele>945.0</ele><time>2026-04-18T10:24:45Z</time></trkpt><trkpt lat="42.632048133881256" lon="13.549458037654885"><ele>945.0</ele><time>2026-04-18T10:24:46Z</time></trkpt><trkpt lat="42.632028024603414" lon="13.549623796707646"><ele>945.0</ele><time>2026-04-18T10:24:47Z</time></trkpt><trkpt lat="42.63202460290415" lon="13.549793295441809"><ele>945.0</ele><time>2026-04-18T10:24:48Z</time></trkpt><trkpt lat="42.631995196854966" lon="13.549948736570558"><ele>945.0</ele><time>2026-04-18T10:24:49Z</time></trkpt><trkpt lat="42.6319754153439" lon="13.55009107753133"><ele>945.0</ele><time>2026-04-18T10:24:50Z</time></trkpt><trkpt lat="42.63195041306944" lon="13.550220541448011"><ele>945.0</ele><time>2026-04-18T10:24:51Z</time></trkpt><trkpt lat="42.63189722195086" lon="13.55033977034045"><ele>940.4</ele><time>2026-04-18T10:24:52Z</time></trkpt><trkpt lat="42.63186310865397" lon="13.550476375569309"><ele>935.8</ele><time>2026-04-18T10:24:53Z</time></trkpt><trkpt lat="42.63180429973422" lon="13.550600615120018"><ele>931.2</ele><time>2026-04-18T10:24:54Z</time></trkpt><trkpt lat="42.63173819316952" lon="13.55071121564553"><ele>926.6</ele><time>2026-04-18T10:24:55Z</time></trkpt><trkpt lat="42.631672608924355" lon="13.550825890986365"><ele>922.0</ele><time>2026-04-18T10:24:56Z</time></trkpt><trkpt lat="42.63159054390258" lon="13.550935702336574"><ele>922.0</ele><time>2026-04-18T10:24:57Z</time></trkpt><trkpt lat="42.63152009614198" lon="13.551053451779582"><ele>922.0</ele><time>2026-04-18T10:24:58Z</time></trkpt><trkpt lat="42.631434813282304" lon="13.551196028625506"><ele>922.0</ele><time>2026-04-18T10:24:59Z</time></trkpt><trkpt lat="42.63135698239643" lon="13.551326147164204"><ele>922.0</ele><time>2026-04-18T10:25:00Z</time></trkpt><trkpt lat="42.6312748241258" lon="13.551463500302637"><ele>920.0</ele><time>2026-04-18T10:25:01Z</time></trkpt><trkpt lat="42.63119429171383" lon="13.551634493397403"><ele>918.0</ele><time>2026-04-18T10:25:02Z</time></trkpt><trkpt lat="42.63111806922253" lon="13.551764494762784"><ele>916.0</ele><time>2026-04-18T10:25:03Z</time></trkpt><trkpt lat="42.6310239292339" lon="13.55192131326187"><ele>914.0</ele><time>2026-04-18T10:25:04Z</time></trkpt><trkpt lat="42.63093044732727" lon="13.552080909415201"><ele>913.0</ele><time>2026-04-18T10:25:05Z</time></trkpt><trkpt lat="42.63083664039508" lon="13.552240466366449"><ele>912.0</ele><time>2026-04-18T10:25:06Z</time></trkpt><trkpt lat="42.63073285122183" lon="13.552386968066779"><ele>911.0</ele><time>2026-04-18T10:25:07Z</time></trkpt><trkpt lat="42.63065158416871" lon="13.552557886298276"><ele>911.0</ele><time>2026-04-18T10:25:08Z</time></trkpt><trkpt lat="42.63056756692148" lon="13.552702386903926"><ele>911.0</ele><time>2026-04-18T10:25:09Z</time></trkpt><trkpt lat="42.63047718263724" lon="13.552856928923337"><ele>911.0</ele><time>2026-04-18T10:25:10Z</time></trkpt><trkpt lat="42.63038302180087" lon="13.553011833933104"><ele>911.0</ele><time>2026-04-18T10:25:11Z</time></trkpt><trkpt lat="42.63029531073496" lon="13.553141407269907"><ele>906.75</ele><time>2026-04-18T10:25:12Z</time></trkpt><trkpt lat="42.63020907974551" lon="13.553303625705494"><ele>902.5</ele><time>2026-04-18T10:25:13Z</time></trkpt><trkpt lat="42.630124878221885" lon="13.553452318804526"><ele>898.25</ele><time>2026-04-18T10:25:14Z</time></trkpt><trkpt lat="42.63003867797859" lon="13.553597232954653"><ele>894.0</ele><time>2026-04-18T10:25:15Z</time></trkpt><trkpt lat="42.62995401956943" lon="13.553742223129088"><ele>894.0</ele><time>2026-04-18T10:25:16Z</time></trkpt><trkpt lat="42.62987897383348" lon="13.553875516606585"><ele>894.0000000000001</ele><time>2026-04-18T10:25:17Z</time></trkpt><trkpt lat="42.62980665059417" lon="13.553996371142707"><ele>894.0000000000001</ele><time>2026-04-18T10:25:18Z</time></trkpt><trkpt lat="42.62974169804018" lon="13.554103074710234"><ele>894.0</ele><time>2026-04-18T10:25:19Z</time></trkpt><trkpt lat="42.62968510332611" lon="13.554205172779733"><ele>894.0</ele><time>2026-04-18T10:25:20Z</time></trkpt><trkpt lat="42.62963690382699" lon="13.55429534299381"><ele>894.0</ele><time>2026-04-18T10:25:21Z</time></trkpt><trkpt lat="42.62957084117761" lon="13.554405517486558"><ele>894.0</ele><time>2026-04-18T10:25:23Z</time></trkpt><trkpt lat="42.62950803315306" lon="13.554508841315679"><ele>894.0</ele><time>2026-04-18T10:25:25Z</time></trkpt><trkpt lat="42.629530489619356" lon="13.554405069176857"><ele>894.0</ele><time>2026-04-18T10:25:29Z</time></trkpt><trkpt lat="42.62953143015765" lon="13.554286729828958"><ele>894.0</ele><time>2026-04-18T10:25:30Z</time></trkpt><trkpt lat="42.62957363267949" lon="13.554205502823208"><ele>894.0</ele><time>2026-04-18T10:25:31Z</time></trkpt><trkpt lat="42.62955637912987" lon="13.55410571737487"><ele>894.0</ele><time>2026-04-18T10:25:33Z</time></trkpt><trkpt lat="42.629493691522924" lon="13.55411507300527"><ele>894.0000000000001</ele><time>2026-04-18T10:25:34Z</time></trkpt><trkpt lat="42.62940946503269" lon="13.554145092566959"><ele>894.0000000000001</ele><time>2026-04-18T10:25:35Z</time></trkpt><trkpt lat="42.62930899257813" lon="13.55418689907755"><ele>894.0</ele><time>2026-04-18T10:25:37Z</time></trkpt><trkpt lat="42.62919281284118" lon="13.554223284182381"><ele>894.0</ele><time>2026-04-18T10:25:39Z</time></trkpt><trkpt lat="42.629111541073335" lon="13.55421602192048"><ele>894.0</ele><time>2026-04-18T10:25:40Z</time></trkpt><trkpt lat="42.629005004035676" lon="13.554170747047552"><ele>894.0</ele><time>2026-04-18T10:25:41Z</time></trkpt><trkpt lat="42.62888450300704" lon="13.55409418553762"><ele>894.0</ele><time>2026-04-18T10:25:42Z</time></trkpt><trkpt lat="42.62873920362172" lon="13.55405107661485"><ele>894.0</ele><time>2026-04-18T10:25:43Z</time></trkpt><trkpt lat="42.6285973352298" lon="13.553946735756984"><ele>895.5</ele><time>2026-04-18T10:25:44Z</time></trkpt><trkpt lat="42.62846688723462" lon="13.553873253860296"><ele>897.0</ele><time>2026-04-18T10:25:45Z</time></trkpt><trkpt lat="42.62835339866614" lon="13.553841547064927"><ele>898.5</ele><time>2026-04-18T10:25:46Z</time></trkpt><trkpt lat="42.62826626882173" lon="13.553782266579276"><ele>900.0</ele><time>2026-04-18T10:25:47Z</time></trkpt><trkpt lat="42.62816567399721" lon="13.55377242938424"><ele>900.0</ele><time>2026-04-18T10:25:48Z</time></trkpt><trkpt lat="42.62803831207813" lon="13.553726273288946"><ele>900.0</ele><time>2026-04-18T10:25:49Z</time></trkpt><trkpt lat="42.62794714173094" lon="13.553703006708652"><ele>900.0</ele><time>2026-04-18T10:25:50Z</time></trkpt><trkpt lat="42.6278568544807" lon="13.553670522660532"><ele>900.0</ele><time>2026-04-18T10:25:51Z</time></trkpt><trkpt lat="42.62776939636984" lon="13.553618047185932"><ele>900.0</ele><time>2026-04-18T10:25:52Z</time></trkpt><trkpt lat="42.627667897852966" lon="13.553556558276743"><ele>899.0</ele><time>2026-04-18T10:25:53Z</time></trkpt><trkpt lat="42.627559951035025" lon="13.55346828056956"><ele>898.0</ele><time>2026-04-18T10:25:54Z</time></trkpt><trkpt lat="42.627473235588525" lon="13.553370591741073"><ele>897.0</ele><time>2026-04-18T10:25:55Z</time></trkpt><trkpt lat="42.627386849365415" lon="13.55325859972729"><ele>896.0</ele><time>2026-04-18T10:25:56Z</time></trkpt><trkpt lat="42.6272930910614" lon="13.55318370216491"><ele>896.0</ele><time>2026-04-18T10:25:57Z</time></trkpt><trkpt lat="42.62719176109299" lon="13.55310388272253"><ele>896.0</ele><time>2026-04-18T10:25:58Z</time></trkpt><trkpt lat="42.62710999711817" lon="13.55299863270997"><ele>896.0</ele><time>2026-04-18T10:25:59Z</time></trkpt><trkpt lat="42.62701170095205" lon="13.552907864498444"><ele>896.0</ele><time>2026-04-18T10:26:00Z</time></trkpt><trkpt lat="42.626870394746085" lon="13.55282666570183"><ele>896.25</ele><time>2026-04-18T10:26:01Z</time></trkpt><trkpt lat="42.62676938397502" lon="13.552717707294285"><ele>896.5</ele><time>2026-04-18T10:26:02Z</time></trkpt><trkpt lat="42.6266628413053" lon="13.552627910477224"><ele>896.75</ele><time>2026-04-18T10:26:03Z</time></trkpt><trkpt lat="42.62656277663433" lon="13.552557645440961"><ele>897.0</ele><time>2026-04-18T10:26:04Z</time></trkpt><trkpt lat="42.62646524716384" lon="13.55250476436344"><ele>897.0</ele><time>2026-04-18T10:26:05Z</time></trkpt><trkpt lat="42.62637212287003" lon="13.552454913207505"><ele>897.0</ele><time>2026-04-18T10:26:06Z</time></trkpt><trkpt lat="42.6262540745188" lon="13.552417520455927"><ele>897.0</ele><time>2026-04-18T10:26:06.999Z</time></trkpt><trkpt lat="42.626144530293224" lon="13.552328632651388"><ele>897.0</ele><time>2026-04-18T10:26:07.999Z</time></trkpt><trkpt lat="42.62602786534219" lon="13.552240700213101"><ele>898.2</ele><time>2026-04-18T10:26:08.999Z</time></trkpt><trkpt lat="42.62594070929856" lon="13.552163300715295"><ele>899.4000000000001</ele><time>2026-04-18T10:26:09.999Z</time></trkpt><trkpt lat="42.62586593014011" lon="13.5521133455501"><ele>900.5999999999999</ele><time>2026-04-18T10:26:10.999Z</time></trkpt><trkpt lat="42.62579866421297" lon="13.55204118538324"><ele>901.8</ele><time>2026-04-18T10:26:11.999Z</time></trkpt><trkpt lat="42.6257548618381" lon="13.55194096409261"><ele>903.0</ele><time>2026-04-18T10:26:12.999Z</time></trkpt><trkpt lat="42.625667928002144" lon="13.551852265291439"><ele>900.2</ele><time>2026-04-18T10:26:13.999Z</time></trkpt><trkpt lat="42.62560923302887" lon="13.551783779264495"><ele>897.4</ele><time>2026-04-18T10:26:14.999Z</time></trkpt><trkpt lat="42.62555534393206" lon="13.551723936031799"><ele>894.6000000000001</ele><time>2026-04-18T10:26:15.999Z</time></trkpt><trkpt lat="42.625507259050515" lon="13.551573244839977"><ele>891.8000000000001</ele><time>2026-04-18T10:26:17.999Z</time></trkpt><trkpt lat="42.62539783624547" lon="13.551490439691825"><ele>889.0</ele><time>2026-04-18T10:26:19.999Z</time></trkpt><trkpt lat="42.62530548080176" lon="13.551428096505317"><ele>887.2</ele><time>2026-04-18T10:26:20.999Z</time></trkpt><trkpt lat="42.625216315454594" lon="13.551368260025399"><ele>885.4000000000001</ele><time>2026-04-18T10:26:21.999Z</time></trkpt><trkpt lat="42.62511053993855" lon="13.5512985637336"><ele>883.6</ele><time>2026-04-18T10:26:22.999Z</time></trkpt><trkpt lat="42.62503337713627" lon="13.551222071687858"><ele>881.8</ele><time>2026-04-18T10:26:23.999Z</time></trkpt><trkpt lat="42.62495136561992" lon="13.551156879163777"><ele>880.0</ele><time>2026-04-18T10:26:24.999Z</time></trkpt><trkpt lat="42.624867733764596" lon="13.55110524054437"><ele>879.1666666666666</ele><time>2026-04-18T10:26:25.999Z</time></trkpt><trkpt lat="42.624773492087506" lon="13.551027630712106"><ele>878.3333333333333</ele><time>2026-04-18T10:26:26.999Z</time></trkpt><trkpt lat="42.62469925973815" lon="13.5509660833036"><ele>877.5</ele><time>2026-04-18T10:26:27.999Z</time></trkpt><trkpt lat="42.62463683336869" lon="13.550939713278924"><ele>876.6666666666667</ele><time>2026-04-18T10:26:28.999Z</time></trkpt><trkpt lat="42.62456339890061" lon="13.551005920008686"><ele>875.8333333333334</ele><time>2026-04-18T10:26:30.999Z</time></trkpt><trkpt lat="42.624615788600835" lon="13.55093976528051"><ele>875.0</ele><time>2026-04-18T10:27:59Z</time></trkpt><trkpt lat="42.624734233198815" lon="13.550984745312952"><ele>875.0</ele><time>2026-04-18T10:28:01Z</time></trkpt><trkpt lat="42.624890912561895" lon="13.551130402349287"><ele>875.0</ele><time>2026-04-18T10:28:03Z</time></trkpt><trkpt lat="42.624998069896236" lon="13.55120184233023"><ele>875.0</ele><time>2026-04-18T10:28:04Z</time></trkpt><trkpt lat="42.62508296486621" lon="13.551258090497997"><ele>875.0</ele><time>2026-04-18T10:28:05Z</time></trkpt><trkpt lat="42.62516523502742" lon="13.551305467852572"><ele>875.8333333333334</ele><time>2026-04-18T10:28:06Z</time></trkpt><trkpt lat="42.6252456395428" lon="13.551355863525327"><ele>876.6666666666667</ele><time>2026-04-18T10:28:07Z</time></trkpt><trkpt lat="42.62532313649104" lon="13.55141902308428"><ele>877.5</ele><time>2026-04-18T10:28:08Z</time></trkpt><trkpt lat="42.62539730072013" lon="13.551498531947106"><ele>878.3333333333333</ele><time>2026-04-18T10:28:09Z</time></trkpt><trkpt lat="42.62546564802757" lon="13.551557811924202"><ele>879.1666666666666</ele><time>2026-04-18T10:28:10Z</time></trkpt><trkpt lat="42.62554708482159" lon="13.551615043030132"><ele>880.0</ele><time>2026-04-18T10:28:11Z</time></trkpt><trkpt lat="42.62559015225472" lon="13.55168968097649"><ele>881.8</ele><time>2026-04-18T10:28:12Z</time></trkpt><trkpt lat="42.625621107841326" lon="13.551774021847237"><ele>883.6</ele><time>2026-04-18T10:28:13Z</time></trkpt><trkpt lat="42.62569581151924" lon="13.55190901265413"><ele>885.4000000000001</ele><time>2026-04-18T10:28:15Z</time></trkpt><trkpt lat="42.62577097643208" lon="13.551990576947956"><ele>887.2</ele><time>2026-04-18T10:28:16Z</time></trkpt><trkpt lat="42.62583768102578" lon="13.552071655991803"><ele>889.0</ele><time>2026-04-18T10:28:17Z</time></trkpt><trkpt lat="42.62590401912726" lon="13.552155264099603"><ele>891.0</ele><time>2026-04-18T10:28:18Z</time></trkpt><trkpt lat="42.625997254562144" lon="13.552231285274132"><ele>893.0</ele><time>2026-04-18T10:28:19Z</time></trkpt><trkpt lat="42.62609847633026" lon="13.55228412939377"><ele>895.0</ele><time>2026-04-18T10:28:19.999Z</time></trkpt><trkpt lat="42.626209946742456" lon="13.552353440243124"><ele>897.0</ele><time>2026-04-18T10:28:20.999Z</time></trkpt><trkpt lat="42.62631955131833" lon="13.55242202256528"><ele>897.0</ele><time>2026-04-18T10:28:21.999Z</time></trkpt><trkpt lat="42.62640242465478" lon="13.552484905274639"><ele>897.0</ele><time>2026-04-18T10:28:22.999Z</time></trkpt><trkpt lat="42.62650809558338" lon="13.552533464232988"><ele>897.0</ele><time>2026-04-18T10:28:23.999Z</time></trkpt><trkpt lat="42.62661810274945" lon="13.552598195049699"><ele>897.0</ele><time>2026-04-18T10:28:24.999Z</time></trkpt><trkpt lat="42.62668805882958" lon="13.552655530222962"><ele>897.0</ele><time>2026-04-18T10:28:25.999Z</time></trkpt><trkpt lat="42.62675189076909" lon="13.552706320369838"><ele>897.0</ele><time>2026-04-18T10:28:26.999Z</time></trkpt><trkpt lat="42.62683177899589" lon="13.552766731534144"><ele>897.0</ele><time>2026-04-18T10:28:27.999Z</time></trkpt><trkpt lat="42.62691942812758" lon="13.552851412495812"><ele>897.0</ele><time>2026-04-18T10:28:28.999Z</time></trkpt><trkpt lat="42.627044041935754" lon="13.552937243979265"><ele>897.0</ele><time>2026-04-18T10:28:29.999Z</time></trkpt><trkpt lat="42.62714707069887" lon="13.553018431215108"><ele>896.8</ele><time>2026-04-18T10:28:30.999Z</time></trkpt><trkpt lat="42.6272421138659" lon="13.553089283456982"><ele>896.6</ele><time>2026-04-18T10:28:31.999Z</time></trkpt><trkpt lat="42.6273277070805" lon="13.553200390592625"><ele>896.3999999999999</ele><time>2026-04-18T10:28:32.999Z</time></trkpt><trkpt lat="42.62740291208356" lon="13.553277673709212"><ele>896.1999999999999</ele><time>2026-04-18T10:28:33.999Z</time></trkpt><trkpt lat="42.62748309332606" lon="13.553337722778878"><ele>896.0</ele><time>2026-04-18T10:28:34.999Z</time></trkpt><trkpt lat="42.627560268150475" lon="13.553407153333966"><ele>896.0</ele><time>2026-04-18T10:28:35.999Z</time></trkpt><trkpt lat="42.62763244084626" lon="13.553487584172576"><ele>895.9999999999999</ele><time>2026-04-18T10:28:36.999Z</time></trkpt><trkpt lat="42.627716311432025" lon="13.553545723201024"><ele>895.9999999999999</ele><time>2026-04-18T10:28:37.999Z</time></trkpt><trkpt lat="42.62780035881418" lon="13.553624283303927"><ele>896.0</ele><time>2026-04-18T10:28:38.999Z</time></trkpt><trkpt lat="42.62791073419547" lon="13.55367613188971"><ele>896.0</ele><time>2026-04-18T10:28:39.999Z</time></trkpt><trkpt lat="42.627988317381096" lon="13.55370729521762"><ele>896.8</ele><time>2026-04-18T10:28:40.999Z</time></trkpt><trkpt lat="42.62809969994926" lon="13.553733890165752"><ele>897.5999999999999</ele><time>2026-04-18T10:28:41.999Z</time></trkpt><trkpt lat="42.62820504484656" lon="13.553763452565267"><ele>898.4</ele><time>2026-04-18T10:28:43Z</time></trkpt><trkpt lat="42.62830914745296" lon="13.553799814191118"><ele>899.2</ele><time>2026-04-18T10:28:44Z</time></trkpt><trkpt lat="42.62838610194683" lon="13.553829673049272"><ele>900.0</ele><time>2026-04-18T10:28:45Z</time></trkpt><trkpt lat="42.62845583701919" lon="13.553860009385781"><ele>900.0</ele><time>2026-04-18T10:28:46Z</time></trkpt><trkpt lat="42.62855041165085" lon="13.553908008720276"><ele>900.0</ele><time>2026-04-18T10:28:47Z</time></trkpt><trkpt lat="42.62865603756937" lon="13.553969939391562"><ele>900.0</ele><time>2026-04-18T10:28:48Z</time></trkpt><trkpt lat="42.628781084495884" lon="13.554034823188692"><ele>900.0</ele><time>2026-04-18T10:28:49Z</time></trkpt><trkpt lat="42.628891355272344" lon="13.554093968511692"><ele>898.8</ele><time>2026-04-18T10:28:50Z</time></trkpt><trkpt lat="42.62901402367345" lon="13.554126926804765"><ele>897.6</ele><time>2026-04-18T10:28:51Z</time></trkpt><trkpt lat="42.629117433074356" lon="13.55416199267736"><ele>896.4000000000001</ele><time>2026-04-18T10:28:52Z</time></trkpt><trkpt lat="42.629198477735166" lon="13.554174246676402"><ele>895.2</ele><time>2026-04-18T10:28:53Z</time></trkpt><trkpt lat="42.62932347154384" lon="13.554174738003358"><ele>894.0</ele><time>2026-04-18T10:28:55Z</time></trkpt><trkpt lat="42.629410860610506" lon="13.554129689492008"><ele>894.0</ele><time>2026-04-18T10:28:56Z</time></trkpt><trkpt lat="42.629536338617676" lon="13.554104587286542"><ele>894.0000000000001</ele><time>2026-04-18T10:28:57Z</time></trkpt><trkpt lat="42.62963362978795" lon="13.55410693005072"><ele>894.0000000000001</ele><time>2026-04-18T10:28:58Z</time></trkpt><trkpt lat="42.6296964362874" lon="13.554183512783087"><ele>894.0</ele><time>2026-04-18T10:29:00Z</time></trkpt><trkpt lat="42.62978946484813" lon="13.554080497484243"><ele>894.0</ele><time>2026-04-18T10:29:03Z</time></trkpt><trkpt lat="42.629858670871386" lon="13.553953662404359"><ele>894.0</ele><time>2026-04-18T10:29:05Z</time></trkpt><trkpt lat="42.62990522430917" lon="13.55387677197026"><ele>894.0</ele><time>2026-04-18T10:29:06Z</time></trkpt><trkpt lat="42.629954250724296" lon="13.55379144338437"><ele>894.0</ele><time>2026-04-18T10:29:07Z</time></trkpt><trkpt lat="42.62999997268419" lon="13.553697241946224"><ele>894.0</ele><time>2026-04-18T10:29:08Z</time></trkpt><trkpt lat="42.63004745588867" lon="13.553590182922948"><ele>894.0</ele><time>2026-04-18T10:29:09Z</time></trkpt><trkpt lat="42.63009939469823" lon="13.553490010642934"><ele>894.0</ele><time>2026-04-18T10:29:10Z</time></trkpt><trkpt lat="42.630169828596564" lon="13.553387337995998"><ele>894.0</ele><time>2026-04-18T10:29:11Z</time></trkpt><trkpt lat="42.63023733307952" lon="13.553300987225338"><ele>894.0000000000001</ele><time>2026-04-18T10:29:12Z</time></trkpt><trkpt lat="42.63030247002659" lon="13.553196885689294"><ele>894.0000000000001</ele><time>2026-04-18T10:29:13Z</time></trkpt><trkpt lat="42.63036762875359" lon="13.553088835215535"><ele>894.0</ele><time>2026-04-18T10:29:14Z</time></trkpt><trkpt lat="42.63043752179202" lon="13.552985599802417"><ele>894.0</ele><time>2026-04-18T10:29:15Z</time></trkpt><trkpt lat="42.63050088451147" lon="13.552870840605237"><ele>897.4000000000001</ele><time>2026-04-18T10:29:16Z</time></trkpt><trkpt lat="42.630563624918935" lon="13.552765064721218"><ele>900.8000000000001</ele><time>2026-04-18T10:29:17Z</time></trkpt><trkpt lat="42.63063184950509" lon="13.552656710209455"><ele>904.1999999999999</ele><time>2026-04-18T10:29:18Z</time></trkpt><trkpt lat="42.63069429749574" lon="13.552545556325423"><ele>907.5999999999999</ele><time>2026-04-18T10:29:19Z</time></trkpt><trkpt lat="42.630757049682686" lon="13.5524296162834"><ele>911.0</ele><time>2026-04-18T10:29:20Z</time></trkpt><trkpt lat="42.63082121324956" lon="13.552320432082354"><ele>911.0</ele><time>2026-04-18T10:29:21Z</time></trkpt><trkpt lat="42.630890735679635" lon="13.552209061464378"><ele>910.9999999999999</ele><time>2026-04-18T10:29:22Z</time></trkpt><trkpt lat="42.630958902678564" lon="13.552095740351616"><ele>910.9999999999999</ele><time>2026-04-18T10:29:23Z</time></trkpt><trkpt lat="42.631025964828865" lon="13.551979445940256"><ele>911.0</ele><time>2026-04-18T10:29:24Z</time></trkpt><trkpt lat="42.631099213893066" lon="13.551854948010721"><ele>911.0</ele><time>2026-04-18T10:29:25Z</time></trkpt><trkpt lat="42.631171124013626" lon="13.551731141717031"><ele>911.5999999999999</ele><time>2026-04-18T10:29:26Z</time></trkpt><trkpt lat="42.63124438579087" lon="13.551627730703679"><ele>912.1999999999999</ele><time>2026-04-18T10:29:27Z</time></trkpt><trkpt lat="42.63131484150242" lon="13.551512735895528"><ele>912.8000000000001</ele><time>2026-04-18T10:29:28Z</time></trkpt><trkpt lat="42.63137744588522" lon="13.551401782713732"><ele>913.4000000000001</ele><time>2026-04-18T10:29:29Z</time></trkpt><trkpt lat="42.631443122100166" lon="13.551288119851266"><ele>914.0</ele><time>2026-04-18T10:29:30Z</time></trkpt><trkpt lat="42.63152019346609" lon="13.551171517195426"><ele>916.0</ele><time>2026-04-18T10:29:31Z</time></trkpt><trkpt lat="42.631588839780235" lon="13.551030597275634"><ele>918.0</ele><time>2026-04-18T10:29:32Z</time></trkpt><trkpt lat="42.63166063539159" lon="13.550877202376322"><ele>920.0</ele><time>2026-04-18T10:29:33Z</time></trkpt><trkpt lat="42.63173754867508" lon="13.550733299432986"><ele>922.0</ele><time>2026-04-18T10:29:34Z</time></trkpt><trkpt lat="42.6318289384304" lon="13.550594726753598"><ele>921.9999999999999</ele><time>2026-04-18T10:29:35Z</time></trkpt><trkpt lat="42.63188656081449" lon="13.550468070481795"><ele>922.0</ele><time>2026-04-18T10:29:36Z</time></trkpt><trkpt lat="42.63190812935591" lon="13.550372279879172"><ele>922.0</ele><time>2026-04-18T10:29:37Z</time></trkpt><trkpt lat="42.631959846464405" lon="13.550318421382535"><ele>922.0</ele><time>2026-04-18T10:29:39Z</time></trkpt><trkpt lat="42.6320389550019" lon="13.550398939095658"><ele>921.9999999999999</ele><time>2026-04-18T10:29:41Z</time></trkpt><trkpt lat="42.63207667501643" lon="13.550512543194202"><ele>922.0</ele><time>2026-04-18T10:29:43Z</time></trkpt><trkpt lat="42.632159420496016" lon="13.550534444707628"><ele>923.8571428571429</ele><time>2026-04-18T10:29:45Z</time></trkpt><trkpt lat="42.63221679058474" lon="13.55059401955972"><ele>925.7142857142858</ele><time>2026-04-18T10:29:47Z</time></trkpt><trkpt lat="42.6322471424353" lon="13.550670724171527"><ele>927.5714285714287</ele><time>2026-04-18T10:29:49Z</time></trkpt><trkpt lat="42.63228457724434" lon="13.550598591133078"><ele>929.4285714285716</ele><time>2026-04-18T10:29:59Z</time></trkpt><trkpt lat="42.63230186297686" lon="13.550507301417156"><ele>931.2857142857143</ele><time>2026-04-18T10:31:06Z</time></trkpt><trkpt lat="42.63230983261623" lon="13.550420116778932"><ele>933.1428571428573</ele><time>2026-04-18T10:31:08Z</time></trkpt><trkpt lat="42.63232072147839" lon="13.550522693360696"><ele>935.0000000000001</ele><time>2026-04-18T10:32:02Z</time></trkpt><trkpt lat="42.63234556594734" lon="13.550605614040322"><ele>935.0</ele><time>2026-04-18T10:32:31.999Z</time></trkpt><trkpt lat="42.632368560569745" lon="13.550709654765145"><ele>935.0</ele><time>2026-04-18T10:32:34.999Z</time></trkpt><trkpt lat="42.632434924656216" lon="13.550823750444854"><ele>935.0</ele><time>2026-04-18T10:32:36.999Z</time></trkpt><trkpt lat="42.63249517341325" lon="13.550901850220646"><ele>935.0</ele><time>2026-04-18T10:32:37.999Z</time></trkpt><trkpt lat="42.6325615806806" lon="13.550993842365088"><ele>935.0</ele><time>2026-04-18T10:32:38.999Z</time></trkpt><trkpt lat="42.63262447638088" lon="13.551090700996914"><ele>935.0000000000001</ele><time>2026-04-18T10:32:39.999Z</time></trkpt><trkpt lat="42.63268502181301" lon="13.551150633027051"><ele>935.0</ele><time>2026-04-18T10:32:40.999Z</time></trkpt><trkpt lat="42.63275028033519" lon="13.551196206538005"><ele>935.0</ele><time>2026-04-18T10:32:41.999Z</time></trkpt><trkpt lat="42.63282021767162" lon="13.551249791854158"><ele>935.0</ele><time>2026-04-18T10:32:42.999Z</time></trkpt><trkpt lat="42.63289136086899" lon="13.551306217354346"><ele>935.0000000000001</ele><time>2026-04-18T10:32:43.999Z</time></trkpt><trkpt lat="42.63295083910237" lon="13.551363761001886"><ele>935.0</ele><time>2026-04-18T10:32:44.999Z</time></trkpt><trkpt lat="42.63300246647945" lon="13.551442165792869"><ele>929.8</ele><time>2026-04-18T10:32:45.999Z</time></trkpt><trkpt lat="42.63303364364383" lon="13.551519329504279"><ele>924.6</ele><time>2026-04-18T10:32:46.999Z</time></trkpt><trkpt lat="42.6330745135451" lon="13.55163802697588"><ele>919.4000000000001</ele><time>2026-04-18T10:32:47.999Z</time></trkpt><trkpt lat="42.633128079816224" lon="13.551756920146444"><ele>914.2</ele><time>2026-04-18T10:32:48.999Z</time></trkpt><trkpt lat="42.63318384193525" lon="13.551896601669789"><ele>909.0</ele><time>2026-04-18T10:32:49.999Z</time></trkpt><trkpt lat="42.633234758513915" lon="13.552034181949256"><ele>909.1666666666666</ele><time>2026-04-18T10:32:50.999Z</time></trkpt><trkpt lat="42.6332826561972" lon="13.552150037552233"><ele>909.3333333333333</ele><time>2026-04-18T10:32:51.999Z</time></trkpt><trkpt lat="42.63332071582178" lon="13.552262751837164"><ele>909.5</ele><time>2026-04-18T10:32:52.999Z</time></trkpt><trkpt lat="42.63334622977344" lon="13.552345877003946"><ele>909.6666666666666</ele><time>2026-04-18T10:32:53.999Z</time></trkpt><trkpt lat="42.633352142277815" lon="13.55244864429894"><ele>909.8333333333333</ele><time>2026-04-18T10:32:55Z</time></trkpt><trkpt lat="42.633347908039106" lon="13.552589745266049"><ele>910.0</ele><time>2026-04-18T10:32:56Z</time></trkpt><trkpt lat="42.633357817552366" lon="13.552705151398767"><ele>909.9999999999999</ele><time>2026-04-18T10:32:57Z</time></trkpt><trkpt lat="42.63336171618554" lon="13.552835158870154"><ele>910.0</ele><time>2026-04-18T10:32:58Z</time></trkpt><trkpt lat="42.63336783448745" lon="13.55292508353974"><ele>910.0</ele><time>2026-04-18T10:32:59Z</time></trkpt><trkpt lat="42.63338446101942" lon="13.553023749869507"><ele>910.0</ele><time>2026-04-18T10:33:00Z</time></trkpt><trkpt lat="42.633435825493635" lon="13.553123497240279"><ele>909.9999999999999</ele><time>2026-04-18T10:33:02Z</time></trkpt><trkpt lat="42.63346713173269" lon="13.55319901846853"><ele>910.0</ele><time>2026-04-18T10:33:03Z</time></trkpt><trkpt lat="42.63348782443212" lon="13.553346491284376"><ele>908.5714285714286</ele><time>2026-04-18T10:33:05Z</time></trkpt><trkpt lat="42.63351866179116" lon="13.553439563603636"><ele>907.1428571428571</ele><time>2026-04-18T10:33:07Z</time></trkpt><trkpt lat="42.63352566725026" lon="13.55354214789642"><ele>905.7142857142858</ele><time>2026-04-18T10:33:12Z</time></trkpt><trkpt lat="42.63355639344403" lon="13.553640260334586"><ele>904.2857142857143</ele><time>2026-04-18T10:33:16Z</time></trkpt><trkpt lat="42.63356135953124" lon="13.55373292864666"><ele>902.8571428571429</ele><time>2026-04-18T10:33:22Z</time></trkpt><trkpt lat="42.63358700684481" lon="13.553821526974566"><ele>901.4285714285716</ele><time>2026-04-18T10:33:59Z</time></trkpt><trkpt lat="42.63359278860886" lon="13.553907712197262"><ele>900.0000000000001</ele><time>2026-04-18T10:35:12Z</time></trkpt><trkpt lat="42.633627086743004" lon="13.553980042537372"><ele>893.3333333333334</ele><time>2026-04-18T10:36:05Z</time></trkpt><trkpt lat="42.633641573452365" lon="13.554132514968698"><ele>886.6666666666667</ele><time>2026-04-18T10:36:53.999Z</time></trkpt><trkpt lat="42.63364397863524" lon="13.554223728726585"><ele>880.0</ele><time>2026-04-18T10:37:09Z</time></trkpt><trkpt lat="42.633653315838586" lon="13.554312371680236"><ele>873.3333333333334</ele><time>2026-04-18T10:37:16Z</time></trkpt><trkpt lat="42.633708508635024" lon="13.554377024669357"><ele>866.6666666666667</ele><time>2026-04-18T10:37:21Z</time></trkpt><trkpt lat="42.6337021603174" lon="13.554467418564847"><ele>860.0</ele><time>2026-04-18T10:37:27Z</time></trkpt><trkpt lat="42.63372220136284" lon="13.554573358218047"><ele>857.7142857142857</ele><time>2026-04-18T10:37:33Z</time></trkpt><trkpt lat="42.63373796778736" lon="13.55468039094115"><ele>855.4285714285714</ele><time>2026-04-18T10:37:37Z</time></trkpt><trkpt lat="42.633762414865835" lon="13.554781699261914"><ele>853.1428571428571</ele><time>2026-04-18T10:37:41Z</time></trkpt><trkpt lat="42.633773487262836" lon="13.554869233692575"><ele>850.8571428571429</ele><time>2026-04-18T10:37:45Z</time></trkpt><trkpt lat="42.63378872416483" lon="13.554959540709316"><ele>848.5714285714287</ele><time>2026-04-18T10:37:50Z</time></trkpt><trkpt lat="42.633808603262246" lon="13.55505192499138"><ele>846.2857142857143</ele><time>2026-04-18T10:37:54Z</time></trkpt><trkpt lat="42.633844048234906" lon="13.555142667171918"><ele>844.0</ele><time>2026-04-18T10:37:59Z</time></trkpt><trkpt lat="42.633853487746244" lon="13.555229123118718"><ele>844.0</ele><time>2026-04-18T10:38:02Z</time></trkpt><trkpt lat="42.63386321550481" lon="13.555314819008691"><ele>844.0</ele><time>2026-04-18T10:38:05Z</time></trkpt><trkpt lat="42.633879733858606" lon="13.555402232174592"><ele>844.0</ele><time>2026-04-18T10:38:09Z</time></trkpt><trkpt lat="42.63391866439992" lon="13.555490655361506"><ele>844.0</ele><time>2026-04-18T10:38:52.999Z</time></trkpt><trkpt lat="42.63394206717026" lon="13.555598633830401"><ele>844.0</ele><time>2026-04-18T10:38:55.999Z</time></trkpt><trkpt lat="42.63395744661159" lon="13.555683535547406"><ele>844.0</ele><time>2026-04-18T10:38:58.999Z</time></trkpt><trkpt lat="42.633966155933386" lon="13.555777039004875"><ele>844.0</ele><time>2026-04-18T10:39:00.999Z</time></trkpt><trkpt lat="42.63396551153124" lon="13.555887411322498"><ele>841.8333333333333</ele><time>2026-04-18T10:39:02.999Z</time></trkpt><trkpt lat="42.63398007470443" lon="13.555995903151228"><ele>839.6666666666666</ele><time>2026-04-18T10:39:05.999Z</time></trkpt><trkpt lat="42.63401282732456" lon="13.556117345412309"><ele>837.5</ele><time>2026-04-18T10:39:08.999Z</time></trkpt><trkpt lat="42.63403962642717" lon="13.556240168943956"><ele>835.3333333333333</ele><time>2026-04-18T10:39:11.999Z</time></trkpt><trkpt lat="42.63407748974244" lon="13.556313274905863"><ele>833.1666666666666</ele><time>2026-04-18T10:39:14Z</time></trkpt><trkpt lat="42.63410693619331" lon="13.55640220970016"><ele>831.0</ele><time>2026-04-18T10:39:18Z</time></trkpt><trkpt lat="42.634128976933454" lon="13.556496721173438"><ele>828.7142857142857</ele><time>2026-04-18T10:39:23Z</time></trkpt><trkpt lat="42.6341884326886" lon="13.556537407633668"><ele>826.4285714285714</ele><time>2026-04-18T10:39:27Z</time></trkpt><trkpt lat="42.63425227180389" lon="13.556542293319621"><ele>824.1428571428571</ele><time>2026-04-18T10:39:31Z</time></trkpt><trkpt lat="42.63431374389733" lon="13.556506446300627"><ele>821.8571428571429</ele><time>2026-04-18T10:39:35Z</time></trkpt><trkpt lat="42.63433329115309" lon="13.556607585800657"><ele>819.5714285714286</ele><time>2026-04-18T10:39:38Z</time></trkpt><trkpt lat="42.63427995263317" lon="13.556698450916343"><ele>817.2857142857142</ele><time>2026-04-18T10:39:41Z</time></trkpt><trkpt lat="42.634213919401866" lon="13.556716254819024"><ele>815.0</ele><time>2026-04-18T10:39:44Z</time></trkpt><trkpt lat="42.63410365113106" lon="13.556707946978767"><ele>815.0000000000001</ele><time>2026-04-18T10:39:46Z</time></trkpt><trkpt lat="42.63403660279666" lon="13.556689173583496"><ele>815.0</ele><time>2026-04-18T10:39:47Z</time></trkpt><trkpt lat="42.633968154346405" lon="13.556661429771555"><ele>815.0</ele><time>2026-04-18T10:39:48Z</time></trkpt><trkpt lat="42.633887098352695" lon="13.556633468369581"><ele>815.0</ele><time>2026-04-18T10:39:49Z</time></trkpt><trkpt lat="42.63379955089728" lon="13.556597442662124"><ele>815.0000000000001</ele><time>2026-04-18T10:39:50Z</time></trkpt><trkpt lat="42.6337295413846" lon="13.556564996001331"><ele>815.0</ele><time>2026-04-18T10:39:51Z</time></trkpt><trkpt lat="42.63366522726581" lon="13.556532016411282"><ele>812.4</ele><time>2026-04-18T10:39:52Z</time></trkpt><trkpt lat="42.633594742179476" lon="13.556457879061862"><ele>809.8</ele><time>2026-04-18T10:39:53Z</time></trkpt><trkpt lat="42.633506886503895" lon="13.556391254243916"><ele>807.2</ele><time>2026-04-18T10:39:54Z</time></trkpt><trkpt lat="42.633426360731676" lon="13.556362659621145"><ele>804.6</ele><time>2026-04-18T10:39:55Z</time></trkpt><trkpt lat="42.63332884986254" lon="13.556326182275164"><ele>802.0</ele><time>2026-04-18T10:39:57Z</time></trkpt><trkpt lat="42.63321320639977" lon="13.556263690527144"><ele>802.0</ele><time>2026-04-18T10:39:59Z</time></trkpt><trkpt lat="42.63316127740576" lon="13.556172182789114"><ele>802.0</ele><time>2026-04-18T10:40:01Z</time></trkpt><trkpt lat="42.63313270413008" lon="13.556298113429209"><ele>802.0</ele><time>2026-04-18T10:40:29.999Z</time></trkpt><trkpt lat="42.63319079852007" lon="13.55647305532795"><ele>802.0</ele><time>2026-04-18T10:40:31.999Z</time></trkpt><trkpt lat="42.63323723182371" lon="13.556592145314506"><ele>802.0</ele><time>2026-04-18T10:40:32.999Z</time></trkpt><trkpt lat="42.63328378114701" lon="13.556733555830883"><ele>802.0</ele><time>2026-04-18T10:40:33.999Z</time></trkpt><trkpt lat="42.63333369858351" lon="13.556905806174985"><ele>802.0</ele><time>2026-04-18T10:40:34.999Z</time></trkpt><trkpt lat="42.63338748857492" lon="13.557052608675018"><ele>802.0</ele><time>2026-04-18T10:40:35.999Z</time></trkpt><trkpt lat="42.63346184094328" lon="13.557184818043135"><ele>802.0</ele><time>2026-04-18T10:40:36.999Z</time></trkpt><trkpt lat="42.63354907740541" lon="13.55729573999084"><ele>800.0</ele><time>2026-04-18T10:40:37.999Z</time></trkpt><trkpt lat="42.63363125103096" lon="13.557410652891434"><ele>798.0</ele><time>2026-04-18T10:40:38.999Z</time></trkpt><trkpt lat="42.63372211369493" lon="13.55752306652856"><ele>796.0</ele><time>2026-04-18T10:40:39.999Z</time></trkpt><trkpt lat="42.633822080224284" lon="13.55765828925386"><ele>794.0</ele><time>2026-04-18T10:40:40.999Z</time></trkpt><trkpt lat="42.63392171127133" lon="13.557766338823507"><ele>794.0</ele><time>2026-04-18T10:40:41.999Z</time></trkpt><trkpt lat="42.63401693322451" lon="13.557865579857879"><ele>794.0</ele><time>2026-04-18T10:40:42.999Z</time></trkpt><trkpt lat="42.63411671238694" lon="13.557931046589838"><ele>794.0</ele><time>2026-04-18T10:40:43.999Z</time></trkpt><trkpt lat="42.63421512807666" lon="13.55796684266718"><ele>794.0</ele><time>2026-04-18T10:40:44.999Z</time></trkpt><trkpt lat="42.63431043190399" lon="13.557986390820169"><ele>794.0</ele><time>2026-04-18T10:40:45.999Z</time></trkpt><trkpt lat="42.634400529343246" lon="13.558011812075012"><ele>789.6666666666667</ele><time>2026-04-18T10:40:46.999Z</time></trkpt><trkpt lat="42.63448831184452" lon="13.558038406748308"><ele>785.3333333333334</ele><time>2026-04-18T10:40:47.999Z</time></trkpt><trkpt lat="42.63457043789645" lon="13.558051423982441"><ele>781.0</ele><time>2026-04-18T10:40:48.999Z</time></trkpt><trkpt lat="42.634658513255644" lon="13.558060176180044"><ele>776.6666666666667</ele><time>2026-04-18T10:40:49.999Z</time></trkpt><trkpt lat="42.63473639995188" lon="13.558057870479116"><ele>772.3333333333334</ele><time>2026-04-18T10:40:50.999Z</time></trkpt><trkpt lat="42.63481463466492" lon="13.55804729667697"><ele>768.0</ele><time>2026-04-18T10:40:51.999Z</time></trkpt><trkpt lat="42.63488612697996" lon="13.55805041561354"><ele>768.0</ele><time>2026-04-18T10:40:52.999Z</time></trkpt><trkpt lat="42.634953182369806" lon="13.558055695261421"><ele>768.0</ele><time>2026-04-18T10:40:53.999Z</time></trkpt><trkpt lat="42.63506739760687" lon="13.558040175096732"><ele>768.0</ele><time>2026-04-18T10:40:55.999Z</time></trkpt><trkpt lat="42.63517439852169" lon="13.558034624351839"><ele>768.0</ele><time>2026-04-18T10:40:57.999Z</time></trkpt><trkpt lat="42.6352472744813" lon="13.558083221458778"><ele>768.0</ele><time>2026-04-18T10:40:59.999Z</time></trkpt><trkpt lat="42.635351610284026" lon="13.558085608235647"><ele>762.3333333333334</ele><time>2026-04-18T10:41:01.999Z</time></trkpt><trkpt lat="42.63542441610631" lon="13.558060655178856"><ele>756.6666666666667</ele><time>2026-04-18T10:41:03.999Z</time></trkpt><trkpt lat="42.63547308989051" lon="13.557704318365584"><ele>751.0</ele><time>2026-04-18T10:41:04.999Z</time></trkpt><trkpt lat="42.63554918341917" lon="13.55755219586168"><ele>751.0</ele><time>2026-04-18T10:41:05.999Z</time></trkpt><trkpt lat="42.635609861716205" lon="13.557412254616636"><ele>751.0</ele><time>2026-04-18T10:41:06.999Z</time></trkpt><trkpt lat="42.63565737564011" lon="13.557275151632366"><ele>751.0</ele><time>2026-04-18T10:41:07.999Z</time></trkpt><trkpt lat="42.63568434750893" lon="13.557142830781398"><ele>751.0</ele><time>2026-04-18T10:41:08.999Z</time></trkpt><trkpt lat="42.635705207971895" lon="13.557059457602218"><ele>751.0</ele><time>2026-04-18T10:41:09.999Z</time></trkpt><trkpt lat="42.63571910422452" lon="13.556944941381335"><ele>750.1666666666667</ele><time>2026-04-18T10:41:10.999Z</time></trkpt><trkpt lat="42.635718852385494" lon="13.55684168196468"><ele>749.3333333333334</ele><time>2026-04-18T10:41:11.999Z</time></trkpt><trkpt lat="42.63572096440692" lon="13.556755582283936"><ele>748.5</ele><time>2026-04-18T10:41:12.999Z</time></trkpt><trkpt lat="42.63571344763067" lon="13.556643508350724"><ele>747.6666666666666</ele><time>2026-04-18T10:41:13.999Z</time></trkpt><trkpt lat="42.63570812577808" lon="13.556528187150775"><ele>746.8333333333333</ele><time>2026-04-18T10:41:14.999Z</time></trkpt><trkpt lat="42.63571596239379" lon="13.556408566742077"><ele>746.0</ele><time>2026-04-18T10:41:15.999Z</time></trkpt><trkpt lat="42.63568904400656" lon="13.556278164549692"><ele>744.75</ele><time>2026-04-18T10:41:16.999Z</time></trkpt><trkpt lat="42.63564770216692" lon="13.556110726091408"><ele>743.5</ele><time>2026-04-18T10:41:17.999Z</time></trkpt><trkpt lat="42.635614072667806" lon="13.55597112938037"><ele>742.25</ele><time>2026-04-18T10:41:19Z</time></trkpt><trkpt lat="42.63558675282455" lon="13.555825304335357"><ele>741.0</ele><time>2026-04-18T10:41:20Z</time></trkpt><trkpt lat="42.63552515247885" lon="13.555685853163114"><ele>741.0</ele><time>2026-04-18T10:41:21Z</time></trkpt><trkpt lat="42.63550068379452" lon="13.55553102842819"><ele>741.0</ele><time>2026-04-18T10:41:22Z</time></trkpt><trkpt lat="42.635494997619176" lon="13.555377712623445"><ele>741.0</ele><time>2026-04-18T10:41:23Z</time></trkpt><trkpt lat="42.63549108722043" lon="13.55524683812676"><ele>741.0</ele><time>2026-04-18T10:41:24Z</time></trkpt><trkpt lat="42.635511938338176" lon="13.5551338999599"><ele>741.0</ele><time>2026-04-18T10:41:25Z</time></trkpt><trkpt lat="42.63562069387067" lon="13.555025485586915"><ele>743.5999999999999</ele><time>2026-04-18T10:41:26Z</time></trkpt><trkpt lat="42.63572478670138" lon="13.554973390312037"><ele>746.2</ele><time>2026-04-18T10:41:27Z</time></trkpt><trkpt lat="42.635829565040744" lon="13.554896198807109"><ele>748.8</ele><time>2026-04-18T10:41:28Z</time></trkpt><trkpt lat="42.6359299143647" lon="13.554814421978815"><ele>751.4000000000001</ele><time>2026-04-18T10:41:29Z</time></trkpt><trkpt lat="42.63599366299064" lon="13.554816257280946"><ele>754.0</ele><time>2026-04-18T10:41:30Z</time></trkpt><trkpt lat="42.63611010791494" lon="13.554850454443999"><ele>752.2</ele><time>2026-04-18T10:41:32Z</time></trkpt><trkpt lat="42.636180831499146" lon="13.554829391053646"><ele>750.4000000000001</ele><time>2026-04-18T10:41:33Z</time></trkpt><trkpt lat="42.63625663282463" lon="13.554757597582697"><ele>748.6</ele><time>2026-04-18T10:41:34Z</time></trkpt><trkpt lat="42.63633606394488" lon="13.55466959185363"><ele>746.8</ele><time>2026-04-18T10:41:35Z</time></trkpt><trkpt lat="42.63640993305256" lon="13.554608089537544"><ele>745.0</ele><time>2026-04-18T10:41:36Z</time></trkpt><trkpt lat="42.636512086735095" lon="13.554601617482254"><ele>745.0</ele><time>2026-04-18T10:41:37Z</time></trkpt><trkpt lat="42.636624267275145" lon="13.554606852092258"><ele>745.0</ele><time>2026-04-18T10:41:38Z</time></trkpt><trkpt lat="42.636733344776985" lon="13.554585725945287"><ele>745.0</ele><time>2026-04-18T10:41:39Z</time></trkpt><trkpt lat="42.6368385148395" lon="13.55453579745645"><ele>745.0</ele><time>2026-04-18T10:41:40Z</time></trkpt><trkpt lat="42.63694211028223" lon="13.554515658198342"><ele>745.0</ele><time>2026-04-18T10:41:41Z</time></trkpt><trkpt lat="42.63703156281573" lon="13.5545205226305"><ele>746.25</ele><time>2026-04-18T10:41:42Z</time></trkpt><trkpt lat="42.637108173538415" lon="13.554556456054163"><ele>747.5</ele><time>2026-04-18T10:41:43Z</time></trkpt><trkpt lat="42.637207573371604" lon="13.554613682381994"><ele>748.75</ele><time>2026-04-18T10:41:44Z</time></trkpt><trkpt lat="42.63733601542674" lon="13.554711065152695"><ele>750.0</ele><time>2026-04-18T10:41:45Z</time></trkpt><trkpt lat="42.63746922966858" lon="13.554765732785292"><ele>750.0</ele><time>2026-04-18T10:41:46Z</time></trkpt><trkpt lat="42.63758385862594" lon="13.554792598625488"><ele>750.0</ele><time>2026-04-18T10:41:47Z</time></trkpt><trkpt lat="42.63771689675762" lon="13.554813362050458"><ele>750.0</ele><time>2026-04-18T10:41:48Z</time></trkpt><trkpt lat="42.63781070500614" lon="13.554833210608452"><ele>750.0</ele><time>2026-04-18T10:41:49Z</time></trkpt><trkpt lat="42.63788322338633" lon="13.554897655996193"><ele>750.0</ele><time>2026-04-18T10:41:50Z</time></trkpt><trkpt lat="42.637954376862666" lon="13.554963321403818"><ele>750.4</ele><time>2026-04-18T10:41:51Z</time></trkpt><trkpt lat="42.63804379261593" lon="13.55504868016333"><ele>750.8</ele><time>2026-04-18T10:41:52Z</time></trkpt><trkpt lat="42.63813931890692" lon="13.555133024193774"><ele>751.2</ele><time>2026-04-18T10:41:53Z</time></trkpt><trkpt lat="42.638228112508614" lon="13.555150671787697"><ele>751.6</ele><time>2026-04-18T10:41:54Z</time></trkpt><trkpt lat="42.63832472055657" lon="13.555130585499233"><ele>752.0</ele><time>2026-04-18T10:41:55Z</time></trkpt><trkpt lat="42.638424734559635" lon="13.555113614757412"><ele>752.0</ele><time>2026-04-18T10:41:56Z</time></trkpt><trkpt lat="42.63851680087518" lon="13.555107419839361"><ele>752.0</ele><time>2026-04-18T10:41:57Z</time></trkpt><trkpt lat="42.638620657095835" lon="13.555093823586795"><ele>752.0</ele><time>2026-04-18T10:41:58Z</time></trkpt><trkpt lat="42.638719146808825" lon="13.555028557062638"><ele>752.0</ele><time>2026-04-18T10:41:59Z</time></trkpt><trkpt lat="42.638783991422464" lon="13.554943158962766"><ele>752.0</ele><time>2026-04-18T10:42:00Z</time></trkpt><trkpt lat="42.63882046550362" lon="13.554866177940108"><ele>748.0</ele><time>2026-04-18T10:42:01Z</time></trkpt><trkpt lat="42.63884979352842" lon="13.554764995182543"><ele>744.0</ele><time>2026-04-18T10:42:02Z</time></trkpt><trkpt lat="42.638858345026165" lon="13.554651152648479"><ele>740.0</ele><time>2026-04-18T10:42:03Z</time></trkpt><trkpt lat="42.63888529732124" lon="13.554477323246354"><ele>736.0</ele><time>2026-04-18T10:42:05Z</time></trkpt><trkpt lat="42.63880958008282" lon="13.554515819111414"><ele>732.0</ele><time>2026-04-18T10:42:07Z</time></trkpt><trkpt lat="42.638813279128684" lon="13.554421546757009"><ele>728.0</ele><time>2026-04-18T10:42:29.999Z</time></trkpt><trkpt lat="42.638834823721986" lon="13.55426512798855"><ele>726.8333333333333</ele><time>2026-04-18T10:42:32.999Z</time></trkpt><trkpt lat="42.63883981434122" lon="13.554100483848853"><ele>725.6666666666666</ele><time>2026-04-18T10:42:34.999Z</time></trkpt><trkpt lat="42.638834185374506" lon="13.554010517264315"><ele>724.5</ele><time>2026-04-18T10:42:35.999Z</time></trkpt><trkpt lat="42.638830230456534" lon="13.553921158907976"><ele>723.3333333333334</ele><time>2026-04-18T10:42:36.999Z</time></trkpt><trkpt lat="42.638790444141364" lon="13.553822656883376"><ele>722.1666666666667</ele><time>2026-04-18T10:42:37.999Z</time></trkpt><trkpt lat="42.63879839157082" lon="13.553720669260056"><ele>721.0</ele><time>2026-04-18T10:42:38.999Z</time></trkpt><trkpt lat="42.63881628046289" lon="13.55363490378599"><ele>718.75</ele><time>2026-04-18T10:42:39.999Z</time></trkpt><trkpt lat="42.63884299382966" lon="13.553426405605968"><ele>716.5</ele><time>2026-04-18T10:42:42.999Z</time></trkpt><trkpt lat="42.63887205904655" lon="13.553264837744084"><ele>714.25</ele><time>2026-04-18T10:42:44.999Z</time></trkpt><trkpt lat="42.638881203753584" lon="13.55312864619019"><ele>712.0</ele><time>2026-04-18T10:42:46.999Z</time></trkpt><trkpt lat="42.6388996377688" lon="13.552954073068474"><ele>709.8</ele><time>2026-04-18T10:42:48.999Z</time></trkpt><trkpt lat="42.63886259855364" lon="13.552828059358317"><ele>707.6</ele><time>2026-04-18T10:42:50.999Z</time></trkpt><trkpt lat="42.63879077853112" lon="13.552752052625776"><ele>705.4</ele><time>2026-04-18T10:42:52.999Z</time></trkpt><trkpt lat="42.63873996562087" lon="13.552646496614921"><ele>703.1999999999999</ele><time>2026-04-18T10:42:54.999Z</time></trkpt><trkpt lat="42.6386705994812" lon="13.552522364310425"><ele>701.0</ele><time>2026-04-18T10:42:56.999Z</time></trkpt><trkpt lat="42.63862710841029" lon="13.552455691006047"><ele>706.1999999999999</ele><time>2026-04-18T10:42:57.999Z</time></trkpt><trkpt lat="42.6385752678255" lon="13.55235688969902"><ele>711.4</ele><time>2026-04-18T10:42:58.999Z</time></trkpt><trkpt lat="42.63852626344161" lon="13.552296973546472"><ele>716.6</ele><time>2026-04-18T10:42:59.999Z</time></trkpt><trkpt lat="42.63843461775526" lon="13.55219253696235"><ele>721.8</ele><time>2026-04-18T10:43:01.999Z</time></trkpt><trkpt lat="42.63835411734595" lon="13.552109323898895"><ele>727.0</ele><time>2026-04-18T10:43:03.999Z</time></trkpt><trkpt lat="42.638221997734426" lon="13.552066883160881"><ele>727.0</ele><time>2026-04-18T10:43:05.999Z</time></trkpt><trkpt lat="42.638127736333836" lon="13.552044563898475"><ele>727.0</ele><time>2026-04-18T10:43:07.999Z</time></trkpt><trkpt lat="42.63807350415455" lon="13.551943139816563"><ele>727.0</ele><time>2026-04-18T10:43:09.999Z</time></trkpt><trkpt lat="42.63801829823203" lon="13.55176244973222"><ele>727.0</ele><time>2026-04-18T10:43:11.999Z</time></trkpt><trkpt lat="42.63797271756437" lon="13.551644098603365"><ele>727.0</ele><time>2026-04-18T10:43:12.999Z</time></trkpt><trkpt lat="42.63792408630733" lon="13.551547208431842"><ele>725.5</ele><time>2026-04-18T10:43:13.999Z</time></trkpt><trkpt lat="42.63787161897747" lon="13.551471733579291"><ele>724.0</ele><time>2026-04-18T10:43:14.999Z</time></trkpt><trkpt lat="42.63781927045393" lon="13.551394692951627"><ele>722.5</ele><time>2026-04-18T10:43:15.999Z</time></trkpt><trkpt lat="42.63775936848353" lon="13.551304988101194"><ele>721.0</ele><time>2026-04-18T10:43:16.999Z</time></trkpt><trkpt lat="42.63766701962368" lon="13.551198078194826"><ele>719.5</ele><time>2026-04-18T10:43:18.999Z</time></trkpt><trkpt lat="42.63759750883855" lon="13.551179125171586"><ele>718.0</ele><time>2026-04-18T10:43:19.999Z</time></trkpt><trkpt lat="42.637533387504334" lon="13.551137707368587"><ele>713.1666666666667</ele><time>2026-04-18T10:43:20.999Z</time></trkpt><trkpt lat="42.63744926687843" lon="13.551090497085724"><ele>708.3333333333334</ele><time>2026-04-18T10:43:21.999Z</time></trkpt><trkpt lat="42.637376827406335" lon="13.55106630578087"><ele>703.5</ele><time>2026-04-18T10:43:22.999Z</time></trkpt><trkpt lat="42.63729326535868" lon="13.551030683915338"><ele>698.6666666666666</ele><time>2026-04-18T10:43:23.999Z</time></trkpt><trkpt lat="42.63720165810521" lon="13.550988916658557"><ele>693.8333333333333</ele><time>2026-04-18T10:43:25Z</time></trkpt><trkpt lat="42.63713089046105" lon="13.550958654768804"><ele>689.0</ele><time>2026-04-18T10:43:26Z</time></trkpt><trkpt lat="42.637060008392105" lon="13.550905161559196"><ele>689.0</ele><time>2026-04-18T10:43:28Z</time></trkpt><trkpt lat="42.63698591674228" lon="13.550903342166249"><ele>689.0</ele><time>2026-04-18T10:43:30Z</time></trkpt><trkpt lat="42.636917499630485" lon="13.55089633707502"><ele>689.0</ele><time>2026-04-18T10:44:16Z</time></trkpt><trkpt lat="42.63685772520961" lon="13.550816728209927"><ele>689.0</ele><time>2026-04-18T10:49:32.999Z</time></trkpt><trkpt lat="42.63691764664709" lon="13.550773511824941"><ele>689.0</ele><time>2026-04-18T10:49:38.999Z</time></trkpt><trkpt lat="42.636932229227185" lon="13.550674348885023"><ele>689.0</ele><time>2026-04-18T10:49:43Z</time></trkpt><trkpt lat="42.63690996367209" lon="13.55075654238535"><ele>689.0</ele><time>2026-04-18T10:50:16Z</time></trkpt><trkpt lat="42.63689817776088" lon="13.550666109449232"><ele>689.0</ele><time>2026-04-18T10:51:19.999Z</time></trkpt><trkpt lat="42.636981153060795" lon="13.550633057436562"><ele>689.0</ele><time>2026-04-18T10:51:42.999Z</time></trkpt><trkpt lat="42.637009647074116" lon="13.550548042383236"><ele>689.0</ele><time>2026-04-18T10:51:43.999Z</time></trkpt><trkpt lat="42.6370682965918" lon="13.550458051980113"><ele>689.0</ele><time>2026-04-18T10:51:45.999Z</time></trkpt><trkpt lat="42.63721880180236" lon="13.550427296691304"><ele>689.0</ele><time>2026-04-18T10:51:47.999Z</time></trkpt><trkpt lat="42.63734108921779" lon="13.550397295964151"><ele>688.2</ele><time>2026-04-18T10:51:49Z</time></trkpt><trkpt lat="42.63745145495417" lon="13.550340716196525"><ele>687.4000000000001</ele><time>2026-04-18T10:51:50Z</time></trkpt><trkpt lat="42.63756844106949" lon="13.550273089505753"><ele>686.6</ele><time>2026-04-18T10:51:51Z</time></trkpt><trkpt lat="42.637660556487894" lon="13.55023343873094"><ele>685.8</ele><time>2026-04-18T10:51:52Z</time></trkpt><trkpt lat="42.63776207656362" lon="13.550241314134981"><ele>685.0</ele><time>2026-04-18T10:51:53Z</time></trkpt><trkpt lat="42.63786717770182" lon="13.550257615023142"><ele>685.0</ele><time>2026-04-18T10:51:54Z</time></trkpt><trkpt lat="42.63796805015015" lon="13.550302226782213"><ele>685.0</ele><time>2026-04-18T10:51:55Z</time></trkpt><trkpt lat="42.638058890862176" lon="13.550303162326419"><ele>685.0</ele><time>2026-04-18T10:51:56Z</time></trkpt><trkpt lat="42.638148259487416" lon="13.55028884324241"><ele>685.0</ele><time>2026-04-18T10:51:57Z</time></trkpt><trkpt lat="42.638255552208285" lon="13.550253456208182"><ele>685.0</ele><time>2026-04-18T10:51:58Z</time></trkpt><trkpt lat="42.63835818916024" lon="13.550259016148336"><ele>685.0</ele><time>2026-04-18T10:51:59Z</time></trkpt><trkpt lat="42.638437306580244" lon="13.550254676845846"><ele>685.0</ele><time>2026-04-18T10:52:00Z</time></trkpt><trkpt lat="42.63852924929888" lon="13.550256407686923"><ele>685.0</ele><time>2026-04-18T10:52:01Z</time></trkpt><trkpt lat="42.63863467393647" lon="13.550295227490048"><ele>685.0</ele><time>2026-04-18T10:52:02Z</time></trkpt><trkpt lat="42.638746153596514" lon="13.550339992369391"><ele>685.0</ele><time>2026-04-18T10:52:03Z</time></trkpt><trkpt lat="42.63884869518562" lon="13.55035097602662"><ele>681.4</ele><time>2026-04-18T10:52:04Z</time></trkpt><trkpt lat="42.63897751100601" lon="13.550352097047973"><ele>677.8</ele><time>2026-04-18T10:52:05Z</time></trkpt><trkpt lat="42.639067405596364" lon="13.550318010864514"><ele>674.2</ele><time>2026-04-18T10:52:06Z</time></trkpt><trkpt lat="42.63914002961353" lon="13.550289147506177"><ele>670.6</ele><time>2026-04-18T10:52:07Z</time></trkpt><trkpt lat="42.639170475995996" lon="13.550149450411475"><ele>667.0</ele><time>2026-04-18T10:52:09Z</time></trkpt><trkpt lat="42.6391855077036" lon="13.55003540723642"><ele>667.0</ele><time>2026-04-18T10:52:11Z</time></trkpt><trkpt lat="42.639149026402016" lon="13.549948394187881"><ele>667.0</ele><time>2026-04-18T10:52:12Z</time></trkpt><trkpt lat="42.639262716412155" lon="13.549905990672219"><ele>667.0</ele><time>2026-04-18T10:52:14Z</time></trkpt><trkpt lat="42.63933583055348" lon="13.549939520211481"><ele>667.0</ele><time>2026-04-18T10:52:15Z</time></trkpt><trkpt lat="42.639409171094194" lon="13.549967335413335"><ele>667.0</ele><time>2026-04-18T10:52:16Z</time></trkpt><trkpt lat="42.63949487172809" lon="13.549972073392805"><ele>667.0</ele><time>2026-04-18T10:52:17Z</time></trkpt><trkpt lat="42.63955658424398" lon="13.54991905571845"><ele>663.25</ele><time>2026-04-18T10:52:18Z</time></trkpt><trkpt lat="42.639631272241125" lon="13.54979596324903"><ele>659.5</ele><time>2026-04-18T10:52:20Z</time></trkpt><trkpt lat="42.639712428352254" lon="13.549612778831149"><ele>655.75</ele><time>2026-04-18T10:52:22Z</time></trkpt><trkpt lat="42.63974479336845" lon="13.54950694282249"><ele>652.0</ele><time>2026-04-18T10:52:23Z</time></trkpt><trkpt lat="42.63964591436837" lon="13.549382054287435"><ele>652.0</ele><time>2026-04-18T10:52:25Z</time></trkpt><trkpt lat="42.63964192120576" lon="13.549284053276583"><ele>652.0</ele><time>2026-04-18T10:52:26Z</time></trkpt><trkpt lat="42.639622133594" lon="13.54919862415303"><ele>652.0</ele><time>2026-04-18T10:52:27Z</time></trkpt><trkpt lat="42.63963284191938" lon="13.549097307588182"><ele>652.0</ele><time>2026-04-18T10:52:29Z</time></trkpt><trkpt lat="42.63974165233296" lon="13.548979487559896"><ele>652.0</ele><time>2026-04-18T10:52:31Z</time></trkpt><trkpt lat="42.63978652987276" lon="13.548829337652712"><ele>652.0</ele><time>2026-04-18T10:52:33Z</time></trkpt><trkpt lat="42.63980610492637" lon="13.548717462198912"><ele>652.0</ele><time>2026-04-18T10:52:34Z</time></trkpt><trkpt lat="42.63981299877494" lon="13.548577579375293"><ele>652.0</ele><time>2026-04-18T10:52:35Z</time></trkpt><trkpt lat="42.63982672720697" lon="13.548479645748046"><ele>652.0</ele><time>2026-04-18T10:52:36Z</time></trkpt><trkpt lat="42.639842900033194" lon="13.548328666153726"><ele>652.0</ele><time>2026-04-18T10:52:38Z</time></trkpt><trkpt lat="42.639853044883985" lon="13.548233520068854"><ele>652.0</ele><time>2026-04-18T10:52:39Z</time></trkpt><trkpt lat="42.63986850865544" lon="13.548131495405283"><ele>653.0</ele><time>2026-04-18T10:52:40Z</time></trkpt><trkpt lat="42.63992647795635" lon="13.548028269010588"><ele>654.0</ele><time>2026-04-18T10:52:41Z</time></trkpt><trkpt lat="42.639979133005724" lon="13.547936504574096"><ele>655.0</ele><time>2026-04-18T10:52:43Z</time></trkpt><trkpt lat="42.64005170631911" lon="13.548012809666442"><ele>656.0</ele><time>2026-04-18T10:52:44Z</time></trkpt><trkpt lat="42.64005733964084" lon="13.54811730090233"><ele>657.0</ele><time>2026-04-18T10:52:46Z</time></trkpt><trkpt lat="42.64006589370004" lon="13.54826440510757"><ele>657.0</ele><time>2026-04-18T10:52:48Z</time></trkpt><trkpt lat="42.64006843070026" lon="13.548413444950775"><ele>657.0</ele><time>2026-04-18T10:52:50Z</time></trkpt><trkpt lat="42.640065992101746" lon="13.548506766281777"><ele>657.0</ele><time>2026-04-18T10:52:51Z</time></trkpt><trkpt lat="42.64008827844271" lon="13.548589875019115"><ele>657.0</ele><time>2026-04-18T10:52:52Z</time></trkpt><trkpt lat="42.64009366629066" lon="13.548700849164279"><ele>657.0</ele><time>2026-04-18T10:52:53Z</time></trkpt><trkpt lat="42.64009697445918" lon="13.548791271398192"><ele>657.0</ele><time>2026-04-18T10:52:54Z</time></trkpt><trkpt lat="42.64009051156379" lon="13.54887728273805"><ele>656.2857142857142</ele><time>2026-04-18T10:52:56Z</time></trkpt><trkpt lat="42.64009396887912" lon="13.54898262469903"><ele>655.5714285714287</ele><time>2026-04-18T10:53:01Z</time></trkpt><trkpt lat="42.64012787402364" lon="13.549097498921986"><ele>654.8571428571429</ele><time>2026-04-18T10:53:03Z</time></trkpt><trkpt lat="42.640157424807065" lon="13.54917616975604"><ele>654.1428571428571</ele><time>2026-04-18T10:53:04Z</time></trkpt><trkpt lat="42.64019720086165" lon="13.549258293781113"><ele>653.4285714285713</ele><time>2026-04-18T10:53:05Z</time></trkpt><trkpt lat="42.64022694649626" lon="13.549339286835838"><ele>652.7142857142858</ele><time>2026-04-18T10:53:05.999Z</time></trkpt><trkpt lat="42.640262148451995" lon="13.549421345121694"><ele>652.0</ele><time>2026-04-18T10:53:06.999Z</time></trkpt><trkpt lat="42.640285964630095" lon="13.549511795567884"><ele>650.1666666666667</ele><time>2026-04-18T10:53:07.999Z</time></trkpt><trkpt lat="42.64029369086658" lon="13.549619596640355"><ele>648.3333333333334</ele><time>2026-04-18T10:53:08.999Z</time></trkpt><trkpt lat="42.64030268406107" lon="13.54970889632726"><ele>646.5</ele><time>2026-04-18T10:53:09.999Z</time></trkpt><trkpt lat="42.640310325852205" lon="13.549816643203833"><ele>644.6666666666666</ele><time>2026-04-18T10:53:11.999Z</time></trkpt><trkpt lat="42.6403234002452" lon="13.549929685717844"><ele>642.8333333333333</ele><time>2026-04-18T10:53:13.999Z</time></trkpt><trkpt lat="42.64034631550752" lon="13.550010869399943"><ele>641.0</ele><time>2026-04-18T10:53:14.999Z</time></trkpt><trkpt lat="42.64039722416476" lon="13.550155854899494"><ele>642.5999999999999</ele><time>2026-04-18T10:53:16.999Z</time></trkpt><trkpt lat="42.64046508892911" lon="13.55027492145507"><ele>644.2</ele><time>2026-04-18T10:53:18.999Z</time></trkpt><trkpt lat="42.640566053402125" lon="13.550415086967064"><ele>645.8</ele><time>2026-04-18T10:53:20.999Z</time></trkpt><trkpt lat="42.640620393909145" lon="13.550473934191904"><ele>647.4000000000001</ele><time>2026-04-18T10:53:21.999Z</time></trkpt><trkpt lat="42.640668726445575" lon="13.55059160532058"><ele>649.0</ele><time>2026-04-18T10:53:24.999Z</time></trkpt><trkpt lat="42.64073098030365" lon="13.550733221282618"><ele>648.9999999999999</ele><time>2026-04-18T10:53:26.999Z</time></trkpt><trkpt lat="42.640790284110174" lon="13.550802722550358"><ele>649.0</ele><time>2026-04-18T10:53:28.999Z</time></trkpt><trkpt lat="42.64083571163191" lon="13.550878674334824"><ele>649.0</ele><time>2026-04-18T10:53:29.999Z</time></trkpt><trkpt lat="42.640879222959995" lon="13.550965221887893"><ele>649.0</ele><time>2026-04-18T10:53:30.999Z</time></trkpt><trkpt lat="42.64091212499201" lon="13.551044699099593"><ele>649.0</ele><time>2026-04-18T10:53:31.999Z</time></trkpt><trkpt lat="42.64093277315147" lon="13.551130285952247"><ele>648.9999999999999</ele><time>2026-04-18T10:53:32.999Z</time></trkpt><trkpt lat="42.640969413861335" lon="13.551238729446998"><ele>649.0</ele><time>2026-04-18T10:53:33.999Z</time></trkpt><trkpt lat="42.64100879931911" lon="13.551340891050598"><ele>650.3333333333334</ele><time>2026-04-18T10:53:34.999Z</time></trkpt><trkpt lat="42.64104757263499" lon="13.551430131609262"><ele>651.6666666666667</ele><time>2026-04-18T10:53:35.999Z</time></trkpt><trkpt lat="42.64108139365918" lon="13.551517161494132"><ele>653.0</ele><time>2026-04-18T10:53:36.999Z</time></trkpt><trkpt lat="42.6411374221756" lon="13.55164843051616"><ele>654.3333333333334</ele><time>2026-04-18T10:53:38.999Z</time></trkpt><trkpt lat="42.641213538435956" lon="13.551697981774721"><ele>655.6666666666666</ele><time>2026-04-18T10:53:39.999Z</time></trkpt><trkpt lat="42.641280437037864" lon="13.551720773998808"><ele>657.0</ele><time>2026-04-18T10:53:40.999Z</time></trkpt><trkpt lat="42.641356972125614" lon="13.55173402114005"><ele>657.0</ele><time>2026-04-18T10:53:41.999Z</time></trkpt><trkpt lat="42.64142462401429" lon="13.551749869614488"><ele>657.0</ele><time>2026-04-18T10:53:42.999Z</time></trkpt><trkpt lat="42.64150381322207" lon="13.551767637270068"><ele>657.0</ele><time>2026-04-18T10:53:43.999Z</time></trkpt><trkpt lat="42.641575997691206" lon="13.55178744393126"><ele>657.0</ele><time>2026-04-18T10:53:44.999Z</time></trkpt><trkpt lat="42.64164309685244" lon="13.551815704231185"><ele>657.0</ele><time>2026-04-18T10:53:45.999Z</time></trkpt><trkpt lat="42.64170669638611" lon="13.55182606231594"><ele>657.0</ele><time>2026-04-18T10:53:46.999Z</time></trkpt><trkpt lat="42.64182075260327" lon="13.551854125447182"><ele>657.0</ele><time>2026-04-18T10:53:48.999Z</time></trkpt><trkpt lat="42.64191992045235" lon="13.55189635333201"><ele>657.0</ele><time>2026-04-18T10:53:50.999Z</time></trkpt><trkpt lat="42.64205577148851" lon="13.551913635323272"><ele>657.0</ele><time>2026-04-18T10:53:52.999Z</time></trkpt><trkpt lat="42.64214416195077" lon="13.551921617899644"><ele>657.0</ele><time>2026-04-18T10:53:53.999Z</time></trkpt><trkpt lat="42.64223276856635" lon="13.55194993833964"><ele>657.0</ele><time>2026-04-18T10:53:55Z</time></trkpt><trkpt lat="42.64233410511332" lon="13.551963430810213"><ele>655.2</ele><time>2026-04-18T10:53:56Z</time></trkpt><trkpt lat="42.64240508204024" lon="13.551982888138106"><ele>653.4000000000001</ele><time>2026-04-18T10:53:57Z</time></trkpt><trkpt lat="42.64251171408762" lon="13.55198380358778"><ele>651.5999999999999</ele><time>2026-04-18T10:53:58Z</time></trkpt><trkpt lat="42.64261636385299" lon="13.551993514801605"><ele>649.8</ele><time>2026-04-18T10:53:59Z</time></trkpt><trkpt lat="42.6427442386513" lon="13.552010235960443"><ele>648.0</ele><time>2026-04-18T10:54:00Z</time></trkpt><trkpt lat="42.642867952372086" lon="13.552036186411204"><ele>642.8</ele><time>2026-04-18T10:54:01Z</time></trkpt><trkpt lat="42.642951642525105" lon="13.55203395746873"><ele>637.5999999999999</ele><time>2026-04-18T10:54:02Z</time></trkpt><trkpt lat="42.64302069628735" lon="13.551906410602818"><ele>632.4000000000001</ele><time>2026-04-18T10:54:04Z</time></trkpt><trkpt lat="42.64300127325292" lon="13.551762876637442"><ele>627.2</ele><time>2026-04-18T10:54:06Z</time></trkpt><trkpt lat="42.643029016992266" lon="13.551657420786663"><ele>622.0</ele><time>2026-04-18T10:54:07Z</time></trkpt><trkpt lat="42.64306169237588" lon="13.551558344120682"><ele>622.0</ele><time>2026-04-18T10:54:08Z</time></trkpt><trkpt lat="42.64310770109857" lon="13.551420494714822"><ele>622.0</ele><time>2026-04-18T10:54:10Z</time></trkpt><trkpt lat="42.643152167858574" lon="13.551486604654878"><ele>622.0</ele><time>2026-04-18T10:54:13Z</time></trkpt><trkpt lat="42.6432471768353" lon="13.551479741229734"><ele>622.0</ele><time>2026-04-18T10:54:15Z</time></trkpt><trkpt lat="42.64334869592686" lon="13.551466222115648"><ele>622.0</ele><time>2026-04-18T10:54:18Z</time></trkpt><trkpt lat="42.643417470910904" lon="13.551451296114303"><ele>622.0</ele><time>2026-04-18T10:54:22Z</time></trkpt><trkpt lat="42.64344415076657" lon="13.551584594025556"><ele>622.0</ele><time>2026-04-18T10:54:57Z</time></trkpt><trkpt lat="42.643519056028175" lon="13.551698580219862"><ele>622.0</ele><time>2026-04-18T10:54:59Z</time></trkpt><trkpt lat="42.64356619920852" lon="13.551759599536673"><ele>622.0</ele><time>2026-04-18T10:55:00Z</time></trkpt><trkpt lat="42.64362755123729" lon="13.55178803798249"><ele>622.0</ele><time>2026-04-18T10:55:01Z</time></trkpt><trkpt lat="42.64371318842152" lon="13.55186847524153"><ele>622.0</ele><time>2026-04-18T10:55:03Z</time></trkpt><trkpt lat="42.643798594678856" lon="13.551957789716527"><ele>614.3333333333334</ele><time>2026-04-18T10:55:05Z</time></trkpt><trkpt lat="42.64385203058974" lon="13.552050099620121"><ele>606.6666666666667</ele><time>2026-04-18T10:55:07Z</time></trkpt><trkpt lat="42.64382690451082" lon="13.55213821687368"><ele>599.0</ele><time>2026-04-18T10:55:09.999Z</time></trkpt><trkpt lat="42.64384262966508" lon="13.552268499385617"><ele>591.3333333333334</ele><time>2026-04-18T10:55:12.999Z</time></trkpt><trkpt lat="42.643867254151026" lon="13.55236931833857"><ele>583.6666666666666</ele><time>2026-04-18T10:55:15.999Z</time></trkpt><trkpt lat="42.64389283442986" lon="13.552465707221355"><ele>576.0</ele><time>2026-04-18T10:55:19.999Z</time></trkpt><trkpt lat="42.64391942217088" lon="13.552564694568384"><ele>576.0</ele><time>2026-04-18T10:55:21.999Z</time></trkpt><trkpt lat="42.64394515069057" lon="13.55266639373858"><ele>576.0</ele><time>2026-04-18T10:55:23.999Z</time></trkpt><trkpt lat="42.64397505852679" lon="13.552757810739333"><ele>576.0</ele><time>2026-04-18T10:55:26.999Z</time></trkpt><trkpt lat="42.64403093507347" lon="13.55270542401143"><ele>576.0</ele><time>2026-04-18T10:55:30.999Z</time></trkpt><trkpt lat="42.64409508296674" lon="13.55272296201982"><ele>576.0</ele><time>2026-04-18T10:55:59.999Z</time></trkpt><trkpt lat="42.643996849025385" lon="13.552732777794823"><ele>576.0</ele><time>2026-04-18T10:56:08Z</time></trkpt><trkpt lat="42.6439183951267" lon="13.552791079999311"><ele>576.0</ele><time>2026-04-18T10:56:10Z</time></trkpt><trkpt lat="42.64381905915672" lon="13.55284307025119"><ele>576.0</ele><time>2026-04-18T10:56:12Z</time></trkpt><trkpt lat="42.64372079722234" lon="13.55292326635764"><ele>576.0</ele><time>2026-04-18T10:56:14Z</time></trkpt><trkpt lat="42.64366491793461" lon="13.55297291907016"><ele>576.0</ele><time>2026-04-18T10:56:15Z</time></trkpt><trkpt lat="42.64361953691246" lon="13.553051572723062"><ele>576.0</ele><time>2026-04-18T10:56:19Z</time></trkpt><trkpt lat="42.64355859725058" lon="13.55310511719104"><ele>576.0</ele><time>2026-04-18T10:56:21Z</time></trkpt><trkpt lat="42.64348940326546" lon="13.553176349425746"><ele>576.5</ele><time>2026-04-18T10:56:25Z</time></trkpt><trkpt lat="42.64341365236554" lon="13.553294487747586"><ele>577.0</ele><time>2026-04-18T10:56:27Z</time></trkpt><trkpt lat="42.643366017193145" lon="13.553350691294941"><ele>577.5</ele><time>2026-04-18T10:56:28Z</time></trkpt><trkpt lat="42.643303086189896" lon="13.553389108129448"><ele>578.0</ele><time>2026-04-18T10:56:29Z</time></trkpt><trkpt lat="42.64323693986589" lon="13.553449830831855"><ele>578.5</ele><time>2026-04-18T10:56:30Z</time></trkpt><trkpt lat="42.64316468388982" lon="13.55355175555923"><ele>579.0</ele><time>2026-04-18T10:56:32Z</time></trkpt><trkpt lat="42.6431295274271" lon="13.553740176455102"><ele>579.0</ele><time>2026-04-18T10:56:35Z</time></trkpt><trkpt lat="42.64308918696579" lon="13.553665998876703"><ele>579.0</ele><time>2026-04-18T10:56:43Z</time></trkpt><trkpt lat="42.643026612502815" lon="13.553682289354446"><ele>579.0</ele><time>2026-04-18T10:56:46Z</time></trkpt><trkpt lat="42.64303578369717" lon="13.553811154765562"><ele>579.0</ele><time>2026-04-18T10:56:48Z</time></trkpt><trkpt lat="42.64311072621062" lon="13.553864037532279"><ele>579.0</ele><time>2026-04-18T10:56:50Z</time></trkpt><trkpt lat="42.64321650244573" lon="13.55390041818814"><ele>579.0</ele><time>2026-04-18T10:57:04Z</time></trkpt><trkpt lat="42.64329056495458" lon="13.553929888907215"><ele>576.4</ele><time>2026-04-18T10:57:06Z</time></trkpt><trkpt lat="42.64327729573475" lon="13.554054040085095"><ele>573.8</ele><time>2026-04-18T10:57:08Z</time></trkpt><trkpt lat="42.64324531676515" lon="13.554178447647999"><ele>571.2</ele><time>2026-04-18T10:57:09.999Z</time></trkpt><trkpt lat="42.64321122754325" lon="13.554293347785082"><ele>568.6</ele><time>2026-04-18T10:57:11.999Z</time></trkpt><trkpt lat="42.64318889882042" lon="13.554394376606817"><ele>566.0</ele><time>2026-04-18T10:57:12.999Z</time></trkpt><trkpt lat="42.64317607630372" lon="13.554526940601914"><ele>564.4</ele><time>2026-04-18T10:57:13.999Z</time></trkpt><trkpt lat="42.64316432254782" lon="13.55464962589169"><ele>562.8</ele><time>2026-04-18T10:57:14.999Z</time></trkpt><trkpt lat="42.64319901574329" lon="13.554820912691982"><ele>561.1999999999999</ele><time>2026-04-18T10:57:15.999Z</time></trkpt><trkpt lat="42.643239902812425" lon="13.554974143795604"><ele>559.6</ele><time>2026-04-18T10:57:16.999Z</time></trkpt><trkpt lat="42.64326958338294" lon="13.555105532183479"><ele>558.0</ele><time>2026-04-18T10:57:17.999Z</time></trkpt><trkpt lat="42.6432719072733" lon="13.555264337351062"><ele>557.8</ele><time>2026-04-18T10:57:18.999Z</time></trkpt><trkpt lat="42.64326013916567" lon="13.555408604521562"><ele>557.5999999999999</ele><time>2026-04-18T10:57:19.999Z</time></trkpt><trkpt lat="42.64323582692384" lon="13.555568035579988"><ele>557.4000000000001</ele><time>2026-04-18T10:57:20.999Z</time></trkpt><trkpt lat="42.643186884816224" lon="13.555684966906307"><ele>557.2</ele><time>2026-04-18T10:57:21.999Z</time></trkpt><trkpt lat="42.643140461482055" lon="13.555787738158322"><ele>557.0</ele><time>2026-04-18T10:57:22.999Z</time></trkpt><trkpt lat="42.6430814090779" lon="13.555856312254537"><ele>557.0</ele><time>2026-04-18T10:57:23.999Z</time></trkpt><trkpt lat="42.643046937966865" lon="13.556022591225508"><ele>557.0</ele><time>2026-04-18T10:57:25.999Z</time></trkpt><trkpt lat="42.643041418491634" lon="13.556132564740148"><ele>557.0</ele><time>2026-04-18T10:57:26.999Z</time></trkpt><trkpt lat="42.64296601357697" lon="13.556193665222107"><ele>557.0</ele><time>2026-04-18T10:57:28.999Z</time></trkpt><trkpt lat="42.64290927519333" lon="13.55623970537336"><ele>557.0</ele><time>2026-04-18T10:57:29.999Z</time></trkpt><trkpt lat="42.64285053920671" lon="13.556285562486808"><ele>557.0</ele><time>2026-04-18T10:57:30.999Z</time></trkpt><trkpt lat="42.642776360442475" lon="13.556269249911978"><ele>555.1666666666666</ele><time>2026-04-18T10:57:31.999Z</time></trkpt><trkpt lat="42.642718550510864" lon="13.556321677859142"><ele>553.3333333333333</ele><time>2026-04-18T10:57:34.999Z</time></trkpt><trkpt lat="42.642668907923415" lon="13.556384706779355"><ele>551.5</ele><time>2026-04-18T10:57:39.999Z</time></trkpt><trkpt lat="42.642619349159915" lon="13.556458602963085"><ele>549.6666666666666</ele><time>2026-04-18T10:57:45.999Z</time></trkpt><trkpt lat="42.642536486162726" lon="13.556471829441767"><ele>547.8333333333334</ele><time>2026-04-18T10:57:51.999Z</time></trkpt><trkpt lat="42.642447759854036" lon="13.55647479946795"><ele>546.0</ele><time>2026-04-18T10:57:54.999Z</time></trkpt><trkpt lat="42.64237189392416" lon="13.556491376886822"><ele>546.0</ele><time>2026-04-18T10:57:56.999Z</time></trkpt><trkpt lat="42.642270420639285" lon="13.556548503857524"><ele>546.0</ele><time>2026-04-18T10:57:58.999Z</time></trkpt><trkpt lat="42.64220559672327" lon="13.556581174933179"><ele>546.0</ele><time>2026-04-18T10:58:00.999Z</time></trkpt><trkpt lat="42.64211907053149" lon="13.556629225993099"><ele>546.0</ele><time>2026-04-18T10:58:19Z</time></trkpt><trkpt lat="42.64206917649975" lon="13.55671763259392"><ele>546.0</ele><time>2026-04-18T10:59:19.999Z</time></trkpt><trkpt lat="42.6419996243456" lon="13.556785936122296"><ele>546.0</ele><time>2026-04-18T10:59:21.999Z</time></trkpt><trkpt lat="42.641931761754684" lon="13.55683256036705"><ele>545.8333333333334</ele><time>2026-04-18T10:59:22.999Z</time></trkpt><trkpt lat="42.64186263221377" lon="13.556896741780447"><ele>545.6666666666666</ele><time>2026-04-18T10:59:23.999Z</time></trkpt><trkpt lat="42.641790252264116" lon="13.55697887237872"><ele>545.5</ele><time>2026-04-18T10:59:24.999Z</time></trkpt><trkpt lat="42.641730007783266" lon="13.557041774648402"><ele>545.3333333333333</ele><time>2026-04-18T10:59:25.999Z</time></trkpt><trkpt lat="42.641681516455854" lon="13.5571021131719"><ele>545.1666666666666</ele><time>2026-04-18T10:59:26.999Z</time></trkpt><trkpt lat="42.641641858804206" lon="13.557178849719834"><ele>545.0</ele><time>2026-04-18T10:59:28.999Z</time></trkpt><trkpt lat="42.64170865728709" lon="13.557237405555705"><ele>545.0</ele><time>2026-04-18T10:59:30.999Z</time></trkpt><trkpt lat="42.641791863101545" lon="13.557285158955606"><ele>545.0</ele><time>2026-04-18T10:59:32.999Z</time></trkpt><trkpt lat="42.641903718009154" lon="13.557274817541147"><ele>545.0</ele><time>2026-04-18T10:59:34.999Z</time></trkpt><trkpt lat="42.642045879858586" lon="13.557267169843279"><ele>545.0</ele><time>2026-04-18T10:59:36.999Z</time></trkpt><trkpt lat="42.64210694580118" lon="13.557310654493264"><ele>545.0</ele><time>2026-04-18T10:59:38.999Z</time></trkpt><trkpt lat="42.6420865136377" lon="13.557395619499228"><ele>545.0</ele><time>2026-04-18T10:59:40.999Z</time></trkpt><trkpt lat="42.64201777971955" lon="13.55747450225114"><ele>545.0</ele><time>2026-04-18T11:01:07Z</time></trkpt><trkpt lat="42.64195102170791" lon="13.557505493461512"><ele>545.0</ele><time>2026-04-18T11:01:09Z</time></trkpt><trkpt lat="42.64188562394918" lon="13.557575177681521"><ele>545.0</ele><time>2026-04-18T11:01:11Z</time></trkpt><trkpt lat="42.641969798014145" lon="13.557518746426178"><ele>545.0</ele><time>2026-04-18T11:01:14Z</time></trkpt><trkpt lat="42.641905082235276" lon="13.55750217594254"><ele>545.0</ele><time>2026-04-18T11:01:17Z</time></trkpt><trkpt lat="42.641834302068105" lon="13.557556077812025"><ele>545.0</ele><time>2026-04-18T11:02:06.999Z</time></trkpt><trkpt lat="42.641787434775395" lon="13.557629464855662"><ele>545.0</ele><time>2026-04-18T11:02:09.999Z</time></trkpt><trkpt lat="42.64175596590748" lon="13.557726372094484"><ele>545.0</ele><time>2026-04-18T11:02:12.999Z</time></trkpt><trkpt lat="42.641760800383445" lon="13.557867487491176"><ele>545.0</ele><time>2026-04-18T11:02:14.999Z</time></trkpt><trkpt lat="42.641797402517646" lon="13.558000544832947"><ele>545.0</ele><time>2026-04-18T11:02:16.999Z</time></trkpt><trkpt lat="42.64182545590551" lon="13.55808043818143"><ele>545.0</ele><time>2026-04-18T11:02:19Z</time></trkpt><trkpt lat="42.641896464956865" lon="13.558099841897038"><ele>546.0</ele><time>2026-04-18T11:02:23Z</time></trkpt><trkpt lat="42.64196450155351" lon="13.558132064589678"><ele>547.0</ele><time>2026-04-18T11:02:25Z</time></trkpt><trkpt lat="42.64204039506964" lon="13.558175761433208"><ele>548.0</ele><time>2026-04-18T11:02:27Z</time></trkpt><trkpt lat="42.64210459434467" lon="13.558177157395546"><ele>549.0</ele><time>2026-04-18T11:02:29Z</time></trkpt><trkpt lat="42.64215579402784" lon="13.558086240947947"><ele>550.0</ele><time>2026-04-18T11:02:31Z</time></trkpt><trkpt lat="42.642169771721676" lon="13.557983606666753"><ele>551.0</ele><time>2026-04-18T11:02:33Z</time></trkpt><trkpt lat="42.64224628813372" lon="13.557914323600844"><ele>554.7142857142857</ele><time>2026-04-18T11:02:35Z</time></trkpt><trkpt lat="42.64231009142678" lon="13.557922861392907"><ele>558.4285714285714</ele><time>2026-04-18T11:02:36Z</time></trkpt><trkpt lat="42.64237394496153" lon="13.557981021859073"><ele>562.1428571428571</ele><time>2026-04-18T11:02:37Z</time></trkpt><trkpt lat="42.642422995532975" lon="13.558038290198372"><ele>565.8571428571429</ele><time>2026-04-18T11:02:39Z</time></trkpt><trkpt lat="42.642479125939325" lon="13.558084547744878"><ele>569.5714285714286</ele><time>2026-04-18T11:02:41Z</time></trkpt><trkpt lat="42.6425522490569" lon="13.558143841465782"><ele>573.2857142857142</ele><time>2026-04-18T11:02:43Z</time></trkpt><trkpt lat="42.64261344741714" lon="13.558221195921096"><ele>577.0</ele><time>2026-04-18T11:02:46Z</time></trkpt><trkpt lat="42.64264298138416" lon="13.558300288439494"><ele>577.0</ele><time>2026-04-18T11:04:31Z</time></trkpt><trkpt lat="42.642700199437044" lon="13.55837299637642"><ele>577.0</ele><time>2026-04-18T11:05:08Z</time></trkpt><trkpt lat="42.64271343049102" lon="13.558459230582393"><ele>577.0</ele><time>2026-04-18T11:05:16Z</time></trkpt><trkpt lat="42.642743510426406" lon="13.558540397990683"><ele>577.0</ele><time>2026-04-18T11:05:20Z</time></trkpt><trkpt lat="42.642801105812275" lon="13.558654197959667"><ele>577.0</ele><time>2026-04-18T11:05:23Z</time></trkpt><trkpt lat="42.6428346261755" lon="13.55876440885902"><ele>577.0</ele><time>2026-04-18T11:06:18.999Z</time></trkpt><trkpt lat="42.64287572741868" lon="13.558876273366149"><ele>581.0</ele><time>2026-04-18T11:06:20.999Z</time></trkpt><trkpt lat="42.642886668753334" lon="13.55897558232446"><ele>585.0</ele><time>2026-04-18T11:06:23.999Z</time></trkpt><trkpt lat="42.64288313659954" lon="13.559069108278182"><ele>589.0</ele><time>2026-04-18T11:06:36Z</time></trkpt><trkpt lat="42.64292876690729" lon="13.55913537072739"><ele>593.0</ele><time>2026-04-18T11:06:42Z</time></trkpt><trkpt lat="42.642963831261966" lon="13.55921327536571"><ele>597.0</ele><time>2026-04-18T11:06:45Z</time></trkpt><trkpt lat="42.64298948145677" lon="13.559298545956553"><ele>601.0</ele><time>2026-04-18T11:06:48Z</time></trkpt><trkpt lat="42.64300515348692" lon="13.559395130378514"><ele>605.0</ele><time>2026-04-18T11:06:55Z</time></trkpt><trkpt lat="42.64300067010708" lon="13.559481239239794"><ele>608.1666666666666</ele><time>2026-04-18T11:07:16Z</time></trkpt><trkpt lat="42.64304543996172" lon="13.559622828411888"><ele>611.3333333333333</ele><time>2026-04-18T11:07:41Z</time></trkpt><trkpt lat="42.643101916714166" lon="13.559688431949978"><ele>614.5</ele><time>2026-04-18T11:07:43Z</time></trkpt><trkpt lat="42.64311053447636" lon="13.559792368861974"><ele>617.6666666666666</ele><time>2026-04-18T11:07:45.999Z</time></trkpt><trkpt lat="42.643145014994595" lon="13.55991188756193"><ele>620.8333333333334</ele><time>2026-04-18T11:07:47.999Z</time></trkpt><trkpt lat="42.64317494817365" lon="13.560018988727348"><ele>624.0</ele><time>2026-04-18T11:07:59.999Z</time></trkpt><trkpt lat="42.6432122416222" lon="13.560117392417563"><ele>624.0</ele><time>2026-04-18T11:15:31Z</time></trkpt><trkpt lat="42.643251203306754" lon="13.560213688428657"><ele>624.0</ele><time>2026-04-18T11:15:34Z</time></trkpt><trkpt lat="42.64328128930253" lon="13.560327699262755"><ele>624.0</ele><time>2026-04-18T11:15:39Z</time></trkpt><trkpt lat="42.643280545252445" lon="13.560443730154894"><ele>624.0</ele><time>2026-04-18T11:15:42Z</time></trkpt><trkpt lat="42.64323931450358" lon="13.560533107441708"><ele>624.0</ele><time>2026-04-18T11:15:45Z</time></trkpt><trkpt lat="42.6431599461013" lon="13.56052137438602"><ele>624.0</ele><time>2026-04-18T11:15:47Z</time></trkpt><trkpt lat="42.643232460396455" lon="13.560571097634416"><ele>624.0</ele><time>2026-04-18T11:15:54Z</time></trkpt><trkpt lat="42.64330084512384" lon="13.560506087953335"><ele>624.0</ele><time>2026-04-18T11:15:55Z</time></trkpt><trkpt lat="42.64334762461806" lon="13.560439656908104"><ele>624.0</ele><time>2026-04-18T11:15:56Z</time></trkpt><trkpt lat="42.64341198560298" lon="13.560341060387449"><ele>624.0</ele><time>2026-04-18T11:15:58Z</time></trkpt><trkpt lat="42.64340291371002" lon="13.560250147250516"><ele>624.0</ele><time>2026-04-18T11:16:01Z</time></trkpt><trkpt lat="42.6433882799144" lon="13.560152826748629"><ele>624.0</ele><time>2026-04-18T11:16:04Z</time></trkpt><trkpt lat="42.643393844614415" lon="13.560064361166678"><ele>624.0</ele><time>2026-04-18T11:16:06Z</time></trkpt><trkpt lat="42.64341537645612" lon="13.5599165871546"><ele>624.0</ele><time>2026-04-18T11:16:09Z</time></trkpt><trkpt lat="42.64345535770574" lon="13.559801463554155"><ele>624.0</ele><time>2026-04-18T11:16:11Z</time></trkpt><trkpt lat="42.6434862356559" lon="13.559668401253726"><ele>624.0</ele><time>2026-04-18T11:16:13Z</time></trkpt><trkpt lat="42.64352512125825" lon="13.559578215562306"><ele>624.0</ele><time>2026-04-18T11:16:15Z</time></trkpt><trkpt lat="42.64370398054616" lon="13.559570167897276"><ele>628.1666666666666</ele><time>2026-04-18T11:16:32Z</time></trkpt><trkpt lat="42.643760584432265" lon="13.559611343537853"><ele>632.3333333333334</ele><time>2026-04-18T11:16:34Z</time></trkpt><trkpt lat="42.643829919220266" lon="13.559629540913472"><ele>636.5</ele><time>2026-04-18T11:16:36Z</time></trkpt><trkpt lat="42.64392903429405" lon="13.559667241554703"><ele>640.6666666666667</ele><time>2026-04-18T11:16:38Z</time></trkpt><trkpt lat="42.64400902729512" lon="13.559699842100347"><ele>644.8333333333334</ele><time>2026-04-18T11:16:39Z</time></trkpt><trkpt lat="42.644088118772984" lon="13.559721738172028"><ele>649.0</ele><time>2026-04-18T11:16:40Z</time></trkpt><trkpt lat="42.64416682972012" lon="13.55975403395656"><ele>649.0</ele><time>2026-04-18T11:16:41Z</time></trkpt><trkpt lat="42.64426366126725" lon="13.55979577726878"><ele>649.0</ele><time>2026-04-18T11:16:43Z</time></trkpt><trkpt lat="42.64434298745559" lon="13.559789573042151"><ele>649.0</ele><time>2026-04-18T11:16:45Z</time></trkpt><trkpt lat="42.6444512841872" lon="13.559826880265357"><ele>649.0</ele><time>2026-04-18T11:16:47Z</time></trkpt><trkpt lat="42.64450822728951" lon="13.559865910710348"><ele>649.0</ele><time>2026-04-18T11:16:48Z</time></trkpt><trkpt lat="42.644585308667985" lon="13.55991745798335"><ele>649.0</ele><time>2026-04-18T11:16:50Z</time></trkpt><trkpt lat="42.64465083307467" lon="13.559951146193637"><ele>652.2</ele><time>2026-04-18T11:16:52Z</time></trkpt><trkpt lat="42.64474332882126" lon="13.559965783995638"><ele>655.4000000000001</ele><time>2026-04-18T11:16:54Z</time></trkpt><trkpt lat="42.644826071150696" lon="13.559979672486707"><ele>658.6</ele><time>2026-04-18T11:16:56Z</time></trkpt><trkpt lat="42.64489247204202" lon="13.559961960462573"><ele>661.8</ele><time>2026-04-18T11:16:57Z</time></trkpt><trkpt lat="42.644986831272476" lon="13.559851835736138"><ele>665.0</ele><time>2026-04-18T11:16:59Z</time></trkpt><trkpt lat="42.64501609579174" lon="13.559728648147583"><ele>665.0</ele><time>2026-04-18T11:17:00Z</time></trkpt><trkpt lat="42.645110196819545" lon="13.559648535140449"><ele>665.0</ele><time>2026-04-18T11:17:02Z</time></trkpt><trkpt lat="42.64521416621672" lon="13.559673946567777"><ele>665.0</ele><time>2026-04-18T11:17:04Z</time></trkpt><trkpt lat="42.64529511716353" lon="13.559695966369935"><ele>665.0</ele><time>2026-04-18T11:17:06Z</time></trkpt><trkpt lat="42.64544037146894" lon="13.559755311805278"><ele>666.8333333333333</ele><time>2026-04-18T11:17:11Z</time></trkpt><trkpt lat="42.64552656527764" lon="13.55977344895647"><ele>668.6666666666666</ele><time>2026-04-18T11:17:13Z</time></trkpt><trkpt lat="42.64561855816484" lon="13.55980455600423"><ele>670.5</ele><time>2026-04-18T11:17:15Z</time></trkpt><trkpt lat="42.645666942750985" lon="13.55986457796559"><ele>672.3333333333334</ele><time>2026-04-18T11:17:16Z</time></trkpt><trkpt lat="42.645747287226456" lon="13.559897343408363"><ele>674.1666666666667</ele><time>2026-04-18T11:17:19Z</time></trkpt><trkpt lat="42.64581640133256" lon="13.55991488096284"><ele>676.0</ele><time>2026-04-18T11:17:21Z</time></trkpt><trkpt lat="42.64591642437024" lon="13.559967845468222"><ele>676.0</ele><time>2026-04-18T11:17:23Z</time></trkpt><trkpt lat="42.64590051753762" lon="13.560092023355246"><ele>676.0</ele><time>2026-04-18T11:17:25Z</time></trkpt><trkpt lat="42.64580056261635" lon="13.560075361096557"><ele>676.0</ele><time>2026-04-18T11:17:26Z</time></trkpt><trkpt lat="42.645731627595175" lon="13.560139249683765"><ele>676.0</ele><time>2026-04-18T11:17:28Z</time></trkpt><trkpt lat="42.645622001451216" lon="13.56020083900914"><ele>676.0</ele><time>2026-04-18T11:17:30Z</time></trkpt><trkpt lat="42.64551216877772" lon="13.560230346993524"><ele>676.0</ele><time>2026-04-18T11:17:33Z</time></trkpt><trkpt lat="42.6454347993288" lon="13.56029834700361"><ele>676.0</ele><time>2026-04-18T11:17:36Z</time></trkpt><trkpt lat="42.645372294392324" lon="13.560329743414458"><ele>676.0</ele><time>2026-04-18T11:17:38Z</time></trkpt><trkpt lat="42.64530390500461" lon="13.560326589896883"><ele>676.0</ele><time>2026-04-18T11:17:40Z</time></trkpt><trkpt lat="42.64530627505006" lon="13.560443407449418"><ele>676.0</ele><time>2026-04-18T11:17:42Z</time></trkpt><trkpt lat="42.64534402572215" lon="13.560536589551996"><ele>676.0</ele><time>2026-04-18T11:17:44Z</time></trkpt><trkpt lat="42.64538836505" lon="13.560630753055445"><ele>680.1666666666667</ele><time>2026-04-18T11:17:47Z</time></trkpt><trkpt lat="42.64539391416708" lon="13.560716687423396"><ele>684.3333333333334</ele><time>2026-04-18T11:17:50Z</time></trkpt><trkpt lat="42.645344431109756" lon="13.560791894090569"><ele>688.5</ele><time>2026-04-18T11:17:55Z</time></trkpt><trkpt lat="42.645326810335966" lon="13.560879289124342"><ele>692.6666666666666</ele><time>2026-04-18T11:17:57Z</time></trkpt><trkpt lat="42.64539886787918" lon="13.560965962612782"><ele>696.8333333333333</ele><time>2026-04-18T11:18:00Z</time></trkpt><trkpt lat="42.64545931260061" lon="13.561058243073433"><ele>701.0</ele><time>2026-04-18T11:18:03Z</time></trkpt><trkpt lat="42.64556252895649" lon="13.561130015754193"><ele>701.0</ele><time>2026-04-18T11:18:05Z</time></trkpt><trkpt lat="42.645615999641024" lon="13.561178190463915"><ele>701.0</ele><time>2026-04-18T11:18:06Z</time></trkpt><trkpt lat="42.64570505846124" lon="13.56122941458961"><ele>701.0</ele><time>2026-04-18T11:18:07Z</time></trkpt><trkpt lat="42.645745354369524" lon="13.56131471675522"><ele>701.0</ele><time>2026-04-18T11:18:08Z</time></trkpt><trkpt lat="42.64579722389967" lon="13.561382963445457"><ele>701.0</ele><time>2026-04-18T11:18:09Z</time></trkpt><trkpt lat="42.645855529799974" lon="13.561463253546032"><ele>701.0</ele><time>2026-04-18T11:18:10Z</time></trkpt><trkpt lat="42.64591766908705" lon="13.561603656555842"><ele>703.4</ele><time>2026-04-18T11:18:12Z</time></trkpt><trkpt lat="42.64590143439567" lon="13.561763093755971"><ele>705.8</ele><time>2026-04-18T11:18:15Z</time></trkpt><trkpt lat="42.645932942789265" lon="13.561912700363242"><ele>708.1999999999999</ele><time>2026-04-18T11:18:17Z</time></trkpt><trkpt lat="42.64593907708666" lon="13.56207974148985"><ele>710.5999999999999</ele><time>2026-04-18T11:18:19Z</time></trkpt><trkpt lat="42.645953625319606" lon="13.562184006143818"><ele>713.0</ele><time>2026-04-18T11:18:20Z</time></trkpt><trkpt lat="42.64597260608992" lon="13.562294285519037"><ele>713.0</ele><time>2026-04-18T11:18:21Z</time></trkpt><trkpt lat="42.64600250339675" lon="13.562434671436163"><ele>713.0</ele><time>2026-04-18T11:18:22Z</time></trkpt><trkpt lat="42.64603122792613" lon="13.562565868525821"><ele>713.0</ele><time>2026-04-18T11:18:23Z</time></trkpt><trkpt lat="42.646076807866436" lon="13.562732819681626"><ele>713.0</ele><time>2026-04-18T11:18:24Z</time></trkpt><trkpt lat="42.64613740449348" lon="13.562905257056686"><ele>720.5</ele><time>2026-04-18T11:18:25Z</time></trkpt><trkpt lat="42.64620499089349" lon="13.563063562453058"><ele>728.0</ele><time>2026-04-18T11:18:26Z</time></trkpt><trkpt lat="42.64626465433236" lon="13.56321642702022"><ele>735.5</ele><time>2026-04-18T11:18:27Z</time></trkpt><trkpt lat="42.64629232204022" lon="13.563381205087286"><ele>743.0</ele><time>2026-04-18T11:18:28Z</time></trkpt><trkpt lat="42.64634374584447" lon="13.563586319226928"><ele>745.3333333333333</ele><time>2026-04-18T11:18:29Z</time></trkpt><trkpt lat="42.64636004346227" lon="13.563815775381112"><ele>747.6666666666666</ele><time>2026-04-18T11:18:30Z</time></trkpt><trkpt lat="42.64636314940367" lon="13.564005482994668"><ele>750.0</ele><time>2026-04-18T11:18:31Z</time></trkpt><trkpt lat="42.64631377097333" lon="13.564242219389863"><ele>750.0</ele><time>2026-04-18T11:18:32Z</time></trkpt><trkpt lat="42.646253932991506" lon="13.564384479065334"><ele>750.0</ele><time>2026-04-18T11:18:33Z</time></trkpt><trkpt lat="42.646178028002346" lon="13.564520322202867"><ele>750.0</ele><time>2026-04-18T11:18:34Z</time></trkpt><trkpt lat="42.64618705350644" lon="13.564681142856916"><ele>750.0</ele><time>2026-04-18T11:18:35Z</time></trkpt><trkpt lat="42.646243546620916" lon="13.564786843307887"><ele>746.8</ele><time>2026-04-18T11:18:36Z</time></trkpt><trkpt lat="42.64629564785535" lon="13.56485406431039"><ele>743.6</ele><time>2026-04-18T11:18:37Z</time></trkpt><trkpt lat="42.646350158182486" lon="13.564924695913799"><ele>740.4000000000001</ele><time>2026-04-18T11:18:38Z</time></trkpt><trkpt lat="42.64642554016734" lon="13.564991079381166"><ele>737.2</ele><time>2026-04-18T11:18:39Z</time></trkpt><trkpt lat="42.64655756178471" lon="13.565022620142894"><ele>734.0</ele><time>2026-04-18T11:18:40Z</time></trkpt><trkpt lat="42.646683079171225" lon="13.565067811415041"><ele>734.0</ele><time>2026-04-18T11:18:41Z</time></trkpt><trkpt lat="42.646813544171124" lon="13.565107011626042"><ele>734.0</ele><time>2026-04-18T11:18:42Z</time></trkpt><trkpt lat="42.6469329182242" lon="13.565168937052489"><ele>734.0</ele><time>2026-04-18T11:18:43Z</time></trkpt><trkpt lat="42.64705688675849" lon="13.565301090277243"><ele>734.0</ele><time>2026-04-18T11:18:44Z</time></trkpt><trkpt lat="42.6472082360238" lon="13.565441391785367"><ele>737.75</ele><time>2026-04-18T11:18:45Z</time></trkpt><trkpt lat="42.64730198813237" lon="13.56559946629637"><ele>741.5</ele><time>2026-04-18T11:18:46Z</time></trkpt><trkpt lat="42.6473898737967" lon="13.565738598932494"><ele>745.25</ele><time>2026-04-18T11:18:47Z</time></trkpt><trkpt lat="42.64740812728612" lon="13.565927397470553"><ele>749.0</ele><time>2026-04-18T11:18:48Z</time></trkpt><trkpt lat="42.64736339034073" lon="13.56622515535022"><ele>749.0</ele><time>2026-04-18T11:18:49Z</time></trkpt><trkpt lat="42.64735174847733" lon="13.566401733831494"><ele>749.0</ele><time>2026-04-18T11:18:50Z</time></trkpt><trkpt lat="42.647377983852415" lon="13.566581502911214"><ele>749.0</ele><time>2026-04-18T11:18:51Z</time></trkpt><trkpt lat="42.647454004914" lon="13.566710669182669"><ele>749.0</ele><time>2026-04-18T11:18:52Z</time></trkpt><trkpt lat="42.64752877190463" lon="13.566863490590286"><ele>749.0</ele><time>2026-04-18T11:18:53Z</time></trkpt><trkpt lat="42.64763005213757" lon="13.566990762699321"><ele>749.0</ele><time>2026-04-18T11:18:54Z</time></trkpt><trkpt lat="42.64769555971924" lon="13.56716870813669"><ele>749.0</ele><time>2026-04-18T11:18:55Z</time></trkpt><trkpt lat="42.64775885164424" lon="13.567345525522633"><ele>749.0</ele><time>2026-04-18T11:18:56Z</time></trkpt><trkpt lat="42.64781061337572" lon="13.56751245602973"><ele>756.75</ele><time>2026-04-18T11:18:57Z</time></trkpt><trkpt lat="42.647837558620154" lon="13.56766588849761"><ele>764.5</ele><time>2026-04-18T11:18:58Z</time></trkpt><trkpt lat="42.647866401606194" lon="13.567868180607514"><ele>772.25</ele><time>2026-04-18T11:18:59Z</time></trkpt><trkpt lat="42.647874336474224" lon="13.56805638729695"><ele>780.0</ele><time>2026-04-18T11:19:00Z</time></trkpt><trkpt lat="42.647894159572076" lon="13.568255165726539"><ele>780.0</ele><time>2026-04-18T11:19:01Z</time></trkpt><trkpt lat="42.64790097315607" lon="13.568457895417355"><ele>780.0</ele><time>2026-04-18T11:19:02Z</time></trkpt><trkpt lat="42.64789822591193" lon="13.568666677457967"><ele>780.0</ele><time>2026-04-18T11:19:03Z</time></trkpt><trkpt lat="42.64787933024431" lon="13.568874789673844"><ele>779.0</ele><time>2026-04-18T11:19:04Z</time></trkpt><trkpt lat="42.647855461111945" lon="13.569064672344945"><ele>778.0</ele><time>2026-04-18T11:19:05Z</time></trkpt><trkpt lat="42.64780664500904" lon="13.569265966599158"><ele>777.0</ele><time>2026-04-18T11:19:06Z</time></trkpt><trkpt lat="42.64773206425537" lon="13.569412670459124"><ele>776.0</ele><time>2026-04-18T11:19:07Z</time></trkpt><trkpt lat="42.6476410218371" lon="13.56954411507496"><ele>776.0</ele><time>2026-04-18T11:19:08Z</time></trkpt><trkpt lat="42.64752785038837" lon="13.56966615203993"><ele>776.0</ele><time>2026-04-18T11:19:09Z</time></trkpt><trkpt lat="42.647358341331454" lon="13.569689940800385"><ele>776.0</ele><time>2026-04-18T11:19:10Z</time></trkpt><trkpt lat="42.64722660595348" lon="13.569726028045027"><ele>776.0</ele><time>2026-04-18T11:19:11Z</time></trkpt><trkpt lat="42.647101664492396" lon="13.56974895681717"><ele>776.0</ele><time>2026-04-18T11:19:12Z</time></trkpt><trkpt lat="42.646992905076665" lon="13.569881628547476"><ele>776.0</ele><time>2026-04-18T11:19:13Z</time></trkpt><trkpt lat="42.64694927529591" lon="13.57000273102964"><ele>776.0</ele><time>2026-04-18T11:19:14Z</time></trkpt><trkpt lat="42.64691743474621" lon="13.570192275093108"><ele>776.0</ele><time>2026-04-18T11:19:15Z</time></trkpt><trkpt lat="42.64687221218645" lon="13.570410738659826"><ele>770.25</ele><time>2026-04-18T11:19:16Z</time></trkpt><trkpt lat="42.64684444834408" lon="13.57059344353401"><ele>764.5</ele><time>2026-04-18T11:19:17Z</time></trkpt><trkpt lat="42.64688856582686" lon="13.570748365200586"><ele>758.75</ele><time>2026-04-18T11:19:18Z</time></trkpt><trkpt lat="42.64692815455745" lon="13.570947013101605"><ele>753.0</ele><time>2026-04-18T11:19:19Z</time></trkpt><trkpt lat="42.64693578454837" lon="13.571124368160994"><ele>755.25</ele><time>2026-04-18T11:19:20Z</time></trkpt><trkpt lat="42.64693683258737" lon="13.571300044599486"><ele>757.5</ele><time>2026-04-18T11:19:21Z</time></trkpt><trkpt lat="42.64694594896715" lon="13.571467705776328"><ele>759.75</ele><time>2026-04-18T11:19:22Z</time></trkpt><trkpt lat="42.646924879192554" lon="13.571660025500107"><ele>762.0</ele><time>2026-04-18T11:19:23Z</time></trkpt><trkpt lat="42.646875135068925" lon="13.571834237604413"><ele>762.0</ele><time>2026-04-18T11:19:24Z</time></trkpt><trkpt lat="42.6468006113421" lon="13.57199949736664"><ele>762.0</ele><time>2026-04-18T11:19:25Z</time></trkpt><trkpt lat="42.646714049767375" lon="13.572155524473638"><ele>762.0</ele><time>2026-04-18T11:19:26Z</time></trkpt><trkpt lat="42.64661182047779" lon="13.572270846799425"><ele>762.0</ele><time>2026-04-18T11:19:27Z</time></trkpt><trkpt lat="42.646510449288876" lon="13.572411561388472"><ele>765.0</ele><time>2026-04-18T11:19:28Z</time></trkpt><trkpt lat="42.64640559925545" lon="13.572530874569074"><ele>768.0</ele><time>2026-04-18T11:19:29Z</time></trkpt><trkpt lat="42.646314657873226" lon="13.572676670001055"><ele>771.0</ele><time>2026-04-18T11:19:30Z</time></trkpt><trkpt lat="42.64624413524055" lon="13.572819183608784"><ele>774.0</ele><time>2026-04-18T11:19:31Z</time></trkpt><trkpt lat="42.646214231060135" lon="13.572968754942616"><ele>774.0</ele><time>2026-04-18T11:19:32Z</time></trkpt><trkpt lat="42.64623970371248" lon="13.573078312706018"><ele>774.0</ele><time>2026-04-18T11:19:33Z</time></trkpt><trkpt lat="42.64630720710158" lon="13.573225570804228"><ele>774.0</ele><time>2026-04-18T11:19:34Z</time></trkpt><trkpt lat="42.64640423378034" lon="13.573320482698897"><ele>774.0</ele><time>2026-04-18T11:19:35Z</time></trkpt><trkpt lat="42.64650757947949" lon="13.57339948802261"><ele>774.0</ele><time>2026-04-18T11:19:36Z</time></trkpt><trkpt lat="42.64663175193324" lon="13.573504322066224"><ele>774.0</ele><time>2026-04-18T11:19:37Z</time></trkpt><trkpt lat="42.64676213655449" lon="13.573581873876643"><ele>774.0</ele><time>2026-04-18T11:19:38Z</time></trkpt><trkpt lat="42.64689899716565" lon="13.573637853119003"><ele>774.0</ele><time>2026-04-18T11:19:39Z</time></trkpt><trkpt lat="42.64703386783938" lon="13.573627366207942"><ele>777.5</ele><time>2026-04-18T11:19:40Z</time></trkpt><trkpt lat="42.64717063747918" lon="13.573611528514208"><ele>781.0</ele><time>2026-04-18T11:19:41Z</time></trkpt><trkpt lat="42.64729683191981" lon="13.573557925873132"><ele>784.5</ele><time>2026-04-18T11:19:42Z</time></trkpt><trkpt lat="42.647426229583964" lon="13.573524250447852"><ele>788.0</ele><time>2026-04-18T11:19:43Z</time></trkpt><trkpt lat="42.647561492996125" lon="13.57348096415228"><ele>788.0</ele><time>2026-04-18T11:19:44Z</time></trkpt><trkpt lat="42.64769111539677" lon="13.573464036295812"><ele>788.0</ele><time>2026-04-18T11:19:45Z</time></trkpt><trkpt lat="42.647837554961924" lon="13.573451990279038"><ele>788.0</ele><time>2026-04-18T11:19:46Z</time></trkpt><trkpt lat="42.64797342137311" lon="13.573472278618182"><ele>788.0</ele><time>2026-04-18T11:19:47Z</time></trkpt><trkpt lat="42.64812567168304" lon="13.57344179426198"><ele>789.5</ele><time>2026-04-18T11:19:48Z</time></trkpt><trkpt lat="42.64824840755229" lon="13.57334116842869"><ele>791.0</ele><time>2026-04-18T11:19:49Z</time></trkpt><trkpt lat="42.64825400261297" lon="13.57317864211719"><ele>792.5</ele><time>2026-04-18T11:19:50Z</time></trkpt><trkpt lat="42.64835977363956" lon="13.572972693101146"><ele>794.0</ele><time>2026-04-18T11:19:51Z</time></trkpt><trkpt lat="42.648441601933385" lon="13.57279146163751"><ele>794.0</ele><time>2026-04-18T11:19:52Z</time></trkpt><trkpt lat="42.64852169342072" lon="13.572660667428973"><ele>794.0</ele><time>2026-04-18T11:19:53Z</time></trkpt><trkpt lat="42.64859006869195" lon="13.572500005970742"><ele>794.0</ele><time>2026-04-18T11:19:54Z</time></trkpt><trkpt lat="42.648677880309" lon="13.572385056689491"><ele>794.0</ele><time>2026-04-18T11:19:55Z</time></trkpt><trkpt lat="42.64879339734583" lon="13.572230474884234"><ele>789.0</ele><time>2026-04-18T11:19:56Z</time></trkpt><trkpt lat="42.64888409749759" lon="13.57207049467493"><ele>784.0</ele><time>2026-04-18T11:19:57Z</time></trkpt><trkpt lat="42.649007229203534" lon="13.571974559277892"><ele>779.0</ele><time>2026-04-18T11:19:58Z</time></trkpt><trkpt lat="42.6491717559791" lon="13.572005475317765"><ele>779.0</ele><time>2026-04-18T11:19:59Z</time></trkpt><trkpt lat="42.649326348641175" lon="13.57214793294395"><ele>779.0</ele><time>2026-04-18T11:20:00Z</time></trkpt><trkpt lat="42.649437217392595" lon="13.572287278552553"><ele>779.0</ele><time>2026-04-18T11:20:01Z</time></trkpt><trkpt lat="42.649576247213744" lon="13.57236545575935"><ele>779.0</ele><time>2026-04-18T11:20:02Z</time></trkpt><trkpt lat="42.64968028071082" lon="13.572530003110016"><ele>779.0</ele><time>2026-04-18T11:20:03Z</time></trkpt><trkpt lat="42.64970789701645" lon="13.572793424111161"><ele>779.0</ele><time>2026-04-18T11:20:04Z</time></trkpt><trkpt lat="42.649761738015194" lon="13.572975624804387"><ele>779.0</ele><time>2026-04-18T11:20:05Z</time></trkpt><trkpt lat="42.64986683805443" lon="13.573088771767257"><ele>779.0</ele><time>2026-04-18T11:20:06Z</time></trkpt><trkpt lat="42.64999197573095" lon="13.57318104066926"><ele>779.0</ele><time>2026-04-18T11:20:07Z</time></trkpt><trkpt lat="42.65014606297474" lon="13.573278552646954"><ele>779.0</ele><time>2026-04-18T11:20:08Z</time></trkpt><trkpt lat="42.65025373112034" lon="13.573260838103911"><ele>776.3333333333334</ele><time>2026-04-18T11:20:09Z</time></trkpt><trkpt lat="42.65032429154502" lon="13.57318480556941"><ele>773.6666666666667</ele><time>2026-04-18T11:20:10Z</time></trkpt><trkpt lat="42.65049789237456" lon="13.573030308433719"><ele>771.0</ele><time>2026-04-18T11:20:11Z</time></trkpt><trkpt lat="42.65054297397175" lon="13.572830117536208"><ele>778.0</ele><time>2026-04-18T11:20:12Z</time></trkpt><trkpt lat="42.65056922727727" lon="13.572664420510845"><ele>785.0</ele><time>2026-04-18T11:20:13Z</time></trkpt><trkpt lat="42.6506208326556" lon="13.572528786793004"><ele>792.0</ele><time>2026-04-18T11:20:14Z</time></trkpt><trkpt lat="42.65075184677167" lon="13.572383275822379"><ele>799.0</ele><time>2026-04-18T11:20:15Z</time></trkpt><trkpt lat="42.650883543180846" lon="13.572347392997267"><ele>799.0</ele><time>2026-04-18T11:20:16Z</time></trkpt><trkpt lat="42.65102826894412" lon="13.572420765909001"><ele>799.0</ele><time>2026-04-18T11:20:17Z</time></trkpt><trkpt lat="42.651116254157266" lon="13.572258387394244"><ele>799.0</ele><time>2026-04-18T11:20:18Z</time></trkpt><trkpt lat="42.651275359847496" lon="13.572198316166622"><ele>795.0</ele><time>2026-04-18T11:20:19Z</time></trkpt><trkpt lat="42.651418708714495" lon="13.572136545974741"><ele>791.0</ele><time>2026-04-18T11:20:20Z</time></trkpt><trkpt lat="42.65155623134413" lon="13.57209296754654"><ele>787.0</ele><time>2026-04-18T11:20:21Z</time></trkpt><trkpt lat="42.65170230762171" lon="13.572043339797185"><ele>783.0</ele><time>2026-04-18T11:20:22Z</time></trkpt><trkpt lat="42.65181770952036" lon="13.572025039117902"><ele>783.75</ele><time>2026-04-18T11:20:23Z</time></trkpt><trkpt lat="42.65195937833214" lon="13.571931171018013"><ele>784.5</ele><time>2026-04-18T11:20:24Z</time></trkpt><trkpt lat="42.65207945816512" lon="13.571840441109194"><ele>785.25</ele><time>2026-04-18T11:20:25Z</time></trkpt><trkpt lat="42.652154560282334" lon="13.57172186939201"><ele>786.0</ele><time>2026-04-18T11:20:26Z</time></trkpt><trkpt lat="42.6522276001298" lon="13.571572695491788"><ele>786.0</ele><time>2026-04-18T11:20:27Z</time></trkpt><trkpt lat="42.65230692158154" lon="13.571456545917579"><ele>786.0</ele><time>2026-04-18T11:20:28Z</time></trkpt><trkpt lat="42.65244763491744" lon="13.571429699764565"><ele>786.0</ele><time>2026-04-18T11:20:29Z</time></trkpt><trkpt lat="42.65257890006621" lon="13.571361464480544"><ele>786.0</ele><time>2026-04-18T11:20:30Z</time></trkpt><trkpt lat="42.65271658237451" lon="13.571287128689251"><ele>783.0</ele><time>2026-04-18T11:20:31Z</time></trkpt><trkpt lat="42.65285903343567" lon="13.571215366834622"><ele>780.0</ele><time>2026-04-18T11:20:32Z</time></trkpt><trkpt lat="42.65299864370489" lon="13.571168144602355"><ele>777.0</ele><time>2026-04-18T11:20:33Z</time></trkpt><trkpt lat="42.65313335186783" lon="13.571116675284449"><ele>774.0</ele><time>2026-04-18T11:20:34Z</time></trkpt><trkpt lat="42.65328397383559" lon="13.571062378362162"><ele>783.0</ele><time>2026-04-18T11:20:37Z</time></trkpt><trkpt lat="42.653426754454514" lon="13.571001915122293"><ele>792.0</ele><time>2026-04-18T11:20:38Z</time></trkpt><trkpt lat="42.65356314221325" lon="13.571004773632675"><ele>801.0</ele><time>2026-04-18T11:20:39Z</time></trkpt><trkpt lat="42.653707546361176" lon="13.570986644725817"><ele>810.0</ele><time>2026-04-18T11:20:40Z</time></trkpt><trkpt lat="42.65385911505341" lon="13.570882289991806"><ele>810.0</ele><time>2026-04-18T11:20:41Z</time></trkpt><trkpt lat="42.65397325550835" lon="13.570858711942906"><ele>810.0</ele><time>2026-04-18T11:20:42Z</time></trkpt><trkpt lat="42.65409996921281" lon="13.57081630156703"><ele>810.0</ele><time>2026-04-18T11:20:43Z</time></trkpt><trkpt lat="42.65425334041111" lon="13.570767627113508"><ele>810.0</ele><time>2026-04-18T11:20:44Z</time></trkpt><trkpt lat="42.65435584076872" lon="13.570725039877482"><ele>809.75</ele><time>2026-04-18T11:20:45Z</time></trkpt><trkpt lat="42.654495873732856" lon="13.570656330044816"><ele>809.5</ele><time>2026-04-18T11:20:46Z</time></trkpt><trkpt lat="42.65464206915208" lon="13.570651356040214"><ele>809.25</ele><time>2026-04-18T11:20:47Z</time></trkpt><trkpt lat="42.654758783489335" lon="13.57060655813375"><ele>809.0</ele><time>2026-04-18T11:20:48Z</time></trkpt><trkpt lat="42.65489948572609" lon="13.570564083911473"><ele>809.0</ele><time>2026-04-18T11:20:49Z</time></trkpt><trkpt lat="42.65505386779586" lon="13.570531598504305"><ele>809.0</ele><time>2026-04-18T11:20:50Z</time></trkpt><trkpt lat="42.65520910015269" lon="13.570555654364433"><ele>809.0</ele><time>2026-04-18T11:20:51Z</time></trkpt><trkpt lat="42.655340253097336" lon="13.570561949764278"><ele>809.0</ele><time>2026-04-18T11:20:52Z</time></trkpt><trkpt lat="42.6554935614278" lon="13.570602030597982"><ele>811.0</ele><time>2026-04-18T11:20:53Z</time></trkpt><trkpt lat="42.6556486210205" lon="13.570626855137371"><ele>813.0</ele><time>2026-04-18T11:20:54Z</time></trkpt><trkpt lat="42.65579812519693" lon="13.570665095247085"><ele>815.0</ele><time>2026-04-18T11:20:55Z</time></trkpt><trkpt lat="42.65589682402124" lon="13.570688353913896"><ele>817.0</ele><time>2026-04-18T11:20:56Z</time></trkpt><trkpt lat="42.65603388334213" lon="13.570725886222808"><ele>822.25</ele><time>2026-04-18T11:20:57Z</time></trkpt><trkpt lat="42.65616709688535" lon="13.570759277966825"><ele>827.5</ele><time>2026-04-18T11:20:58Z</time></trkpt><trkpt lat="42.65630786506934" lon="13.570802855800236"><ele>832.75</ele><time>2026-04-18T11:20:59Z</time></trkpt><trkpt lat="42.656447929941244" lon="13.570870990788777"><ele>838.0</ele><time>2026-04-18T11:21:00Z</time></trkpt><trkpt lat="42.656557726164785" lon="13.570944983381672"><ele>838.0</ele><time>2026-04-18T11:21:01Z</time></trkpt><trkpt lat="42.656692483789726" lon="13.571008948141245"><ele>838.0</ele><time>2026-04-18T11:21:02Z</time></trkpt><trkpt lat="42.656839989169185" lon="13.571084396098247"><ele>838.0</ele><time>2026-04-18T11:21:03Z</time></trkpt><trkpt lat="42.65697617273643" lon="13.571191986750314"><ele>837.0</ele><time>2026-04-18T11:21:04Z</time></trkpt><trkpt lat="42.65705638686542" lon="13.57132657278331"><ele>836.0</ele><time>2026-04-18T11:21:05Z</time></trkpt><trkpt lat="42.657121182689245" lon="13.571549959199208"><ele>835.0</ele><time>2026-04-18T11:21:06Z</time></trkpt><trkpt lat="42.657095161858244" lon="13.571821360893752"><ele>835.6666666666666</ele><time>2026-04-18T11:21:07Z</time></trkpt><trkpt lat="42.65707246193176" lon="13.572031043624246"><ele>836.3333333333333</ele><time>2026-04-18T11:21:08Z</time></trkpt><trkpt lat="42.657050658404984" lon="13.572259519705632"><ele>837.0</ele><time>2026-04-18T11:21:09Z</time></trkpt><trkpt lat="42.6569978659107" lon="13.572451500026784"><ele>837.0</ele><time>2026-04-18T11:21:10Z</time></trkpt><trkpt lat="42.65695721996464" lon="13.572630123632578"><ele>837.0</ele><time>2026-04-18T11:21:11Z</time></trkpt><trkpt lat="42.656923765127445" lon="13.572804537109752"><ele>837.0</ele><time>2026-04-18T11:21:12Z</time></trkpt><trkpt lat="42.65686356534283" lon="13.572975905324165"><ele>837.0</ele><time>2026-04-18T11:21:13.001Z</time></trkpt><trkpt lat="42.6567680521273" lon="13.573091567394302"><ele>836.25</ele><time>2026-04-18T11:21:14.001Z</time></trkpt><trkpt lat="42.656681789627164" lon="13.573180334170633"><ele>835.5</ele><time>2026-04-18T11:21:15.001Z</time></trkpt><trkpt lat="42.65656735817012" lon="13.573319404356392"><ele>834.75</ele><time>2026-04-18T11:21:16.001Z</time></trkpt><trkpt lat="42.65645870604273" lon="13.573439452026097"><ele>834.0</ele><time>2026-04-18T11:21:17.001Z</time></trkpt><trkpt lat="42.65633698739763" lon="13.573567894102412"><ele>835.0</ele><time>2026-04-18T11:21:18Z</time></trkpt><trkpt lat="42.65620378975492" lon="13.573705962870706"><ele>836.0</ele><time>2026-04-18T11:21:19Z</time></trkpt><trkpt lat="42.65609077780827" lon="13.573824646999954"><ele>837.0</ele><time>2026-04-18T11:21:20Z</time></trkpt><trkpt lat="42.65601571043256" lon="13.57394812310013"><ele>838.0</ele><time>2026-04-18T11:21:21Z</time></trkpt><trkpt lat="42.65589168197979" lon="13.57406441794594"><ele>838.0</ele><time>2026-04-18T11:21:22Z</time></trkpt><trkpt lat="42.655789337926024" lon="13.574140392493826"><ele>838.0</ele><time>2026-04-18T11:21:23Z</time></trkpt><trkpt lat="42.655669203551035" lon="13.574216839705613"><ele>838.0</ele><time>2026-04-18T11:21:24Z</time></trkpt><trkpt lat="42.655511344768684" lon="13.574317180718452"><ele>838.0</ele><time>2026-04-18T11:21:25Z</time></trkpt><trkpt lat="42.65537738247704" lon="13.574481363542233"><ele>843.25</ele><time>2026-04-18T11:21:26Z</time></trkpt><trkpt lat="42.6553559245512" lon="13.574655756931627"><ele>848.5</ele><time>2026-04-18T11:21:27Z</time></trkpt><trkpt lat="42.65537917963921" lon="13.574811463741431"><ele>853.75</ele><time>2026-04-18T11:21:28Z</time></trkpt><trkpt lat="42.65534050652746" lon="13.575020622597807"><ele>859.0</ele><time>2026-04-18T11:21:29Z</time></trkpt><trkpt lat="42.65533857521242" lon="13.575227129840716"><ele>860.25</ele><time>2026-04-18T11:21:30Z</time></trkpt><trkpt lat="42.655312412092506" lon="13.575411245961522"><ele>861.5</ele><time>2026-04-18T11:21:31Z</time></trkpt><trkpt lat="42.655289806133375" lon="13.575612039548197"><ele>862.75</ele><time>2026-04-18T11:21:32Z</time></trkpt><trkpt lat="42.65527635266426" lon="13.575794618005709"><ele>864.0</ele><time>2026-04-18T11:21:33Z</time></trkpt><trkpt lat="42.65526104737923" lon="13.57597674948429"><ele>864.0</ele><time>2026-04-18T11:21:34Z</time></trkpt><trkpt lat="42.65526223952204" lon="13.57615466993407"><ele>864.0</ele><time>2026-04-18T11:21:35Z</time></trkpt><trkpt lat="42.65532023078824" lon="13.576313308437161"><ele>864.0</ele><time>2026-04-18T11:21:36Z</time></trkpt><trkpt lat="42.655399437409365" lon="13.576481906035632"><ele>864.0</ele><time>2026-04-18T11:21:37Z</time></trkpt><trkpt lat="42.65548675618459" lon="13.576646581024004"><ele>864.0</ele><time>2026-04-18T11:21:38Z</time></trkpt><trkpt lat="42.655585269102914" lon="13.576773543399385"><ele>864.0</ele><time>2026-04-18T11:21:39Z</time></trkpt><trkpt lat="42.655685203764776" lon="13.576900704016674"><ele>864.0</ele><time>2026-04-18T11:21:40Z</time></trkpt><trkpt lat="42.65579384439607" lon="13.577025435857792"><ele>864.0</ele><time>2026-04-18T11:21:41Z</time></trkpt><trkpt lat="42.65589594074494" lon="13.577153001111464"><ele>860.25</ele><time>2026-04-18T11:21:42Z</time></trkpt><trkpt lat="42.6560084778245" lon="13.577306160495962"><ele>856.5</ele><time>2026-04-18T11:21:43Z</time></trkpt><trkpt lat="42.656123694502064" lon="13.57744533091132"><ele>852.75</ele><time>2026-04-18T11:21:44Z</time></trkpt><trkpt lat="42.656223314180814" lon="13.577560610956839"><ele>849.0</ele><time>2026-04-18T11:21:45Z</time></trkpt><trkpt lat="42.65632764186307" lon="13.577701288054334"><ele>850.75</ele><time>2026-04-18T11:21:46Z</time></trkpt><trkpt lat="42.656433012902376" lon="13.577836359551359"><ele>852.5</ele><time>2026-04-18T11:21:47Z</time></trkpt><trkpt lat="42.65653789298365" lon="13.577966198497782"><ele>854.25</ele><time>2026-04-18T11:21:48Z</time></trkpt><trkpt lat="42.65667427854507" lon="13.57805716782249"><ele>856.0</ele><time>2026-04-18T11:21:49Z</time></trkpt><trkpt lat="42.6567994631769" lon="13.578157461054774"><ele>856.0</ele><time>2026-04-18T11:21:50Z</time></trkpt><trkpt lat="42.65690805015167" lon="13.578279561753671"><ele>856.0</ele><time>2026-04-18T11:21:51Z</time></trkpt><trkpt lat="42.657011744800215" lon="13.578402176741054"><ele>856.0</ele><time>2026-04-18T11:21:52Z</time></trkpt><trkpt lat="42.657109770389496" lon="13.578529952313819"><ele>856.0</ele><time>2026-04-18T11:21:53Z</time></trkpt><trkpt lat="42.657200027330695" lon="13.578598162802791"><ele>860.25</ele><time>2026-04-18T11:21:54Z</time></trkpt><trkpt lat="42.65731457114314" lon="13.578722856298468"><ele>864.5</ele><time>2026-04-18T11:21:55Z</time></trkpt><trkpt lat="42.65742355080001" lon="13.578869038784605"><ele>868.75</ele><time>2026-04-18T11:21:56Z</time></trkpt><trkpt lat="42.657524351887474" lon="13.579011296075674"><ele>873.0</ele><time>2026-04-18T11:21:57Z</time></trkpt><trkpt lat="42.65762708634404" lon="13.579157128294273"><ele>873.0</ele><time>2026-04-18T11:21:58Z</time></trkpt><trkpt lat="42.657741731422526" lon="13.579351140173902"><ele>873.0</ele><time>2026-04-18T11:21:59Z</time></trkpt><trkpt lat="42.65774011587867" lon="13.579507404549576"><ele>873.0</ele><time>2026-04-18T11:22:00Z</time></trkpt><trkpt lat="42.657691817619" lon="13.57965062891398"><ele>873.0</ele><time>2026-04-18T11:22:01Z</time></trkpt><trkpt lat="42.657599484413076" lon="13.57975345240637"><ele>873.0</ele><time>2026-04-18T11:22:02Z</time></trkpt><trkpt lat="42.657504017046975" lon="13.579806538860973"><ele>873.0</ele><time>2026-04-18T11:22:03Z</time></trkpt><trkpt lat="42.65751038262613" lon="13.579986549017418"><ele>873.0</ele><time>2026-04-18T11:22:04Z</time></trkpt><trkpt lat="42.65749386904844" lon="13.580142245637479"><ele>873.0</ele><time>2026-04-18T11:22:05Z</time></trkpt><trkpt lat="42.657482245100795" lon="13.58029735785688"><ele>873.75</ele><time>2026-04-18T11:22:06Z</time></trkpt><trkpt lat="42.65751348002571" lon="13.580481377289466"><ele>874.5</ele><time>2026-04-18T11:22:07Z</time></trkpt><trkpt lat="42.65764438107046" lon="13.580570600943396"><ele>875.25</ele><time>2026-04-18T11:22:08Z</time></trkpt><trkpt lat="42.657708833484584" lon="13.580690643906932"><ele>876.0</ele><time>2026-04-18T11:22:09Z</time></trkpt><trkpt lat="42.65776414043062" lon="13.580850993734206"><ele>881.25</ele><time>2026-04-18T11:22:10Z</time></trkpt><trkpt lat="42.65781393909629" lon="13.581011558705278"><ele>886.5</ele><time>2026-04-18T11:22:11Z</time></trkpt><trkpt lat="42.65786236228822" lon="13.581178780680332"><ele>891.75</ele><time>2026-04-18T11:22:12Z</time></trkpt><trkpt lat="42.657870416513624" lon="13.581378454163682"><ele>897.0</ele><time>2026-04-18T11:22:13Z</time></trkpt><trkpt lat="42.657821143372374" lon="13.581547037967422"><ele>896.5</ele><time>2026-04-18T11:22:14Z</time></trkpt><trkpt lat="42.657765641539406" lon="13.581725136384282"><ele>896.0</ele><time>2026-04-18T11:22:15Z</time></trkpt><trkpt lat="42.65769576553573" lon="13.581883399208362"><ele>895.5</ele><time>2026-04-18T11:22:16Z</time></trkpt><trkpt lat="42.657632822039716" lon="13.58202630222377"><ele>895.0</ele><time>2026-04-18T11:22:17Z</time></trkpt><trkpt lat="42.657554087193944" lon="13.582190691194352"><ele>895.0</ele><time>2026-04-18T11:22:18Z</time></trkpt><trkpt lat="42.657475266179574" lon="13.58236491697147"><ele>895.0</ele><time>2026-04-18T11:22:19Z</time></trkpt><trkpt lat="42.65741725298734" lon="13.58253904749943"><ele>895.0</ele><time>2026-04-18T11:22:20Z</time></trkpt><trkpt lat="42.657366376351135" lon="13.58271961560404"><ele>895.0</ele><time>2026-04-18T11:22:21Z</time></trkpt><trkpt lat="42.65731877917129" lon="13.582889070007283"><ele>897.25</ele><time>2026-04-18T11:22:22Z</time></trkpt><trkpt lat="42.65727722736663" lon="13.583081443583458"><ele>899.5</ele><time>2026-04-18T11:22:23Z</time></trkpt><trkpt lat="42.65723521229574" lon="13.583262940138201"><ele>901.75</ele><time>2026-04-18T11:22:24Z</time></trkpt><trkpt lat="42.6571969161978" lon="13.583425851730963"><ele>904.0</ele><time>2026-04-18T11:22:25Z</time></trkpt><trkpt lat="42.657151610085855" lon="13.583610898384418"><ele>906.0</ele><time>2026-04-18T11:22:26Z</time></trkpt><trkpt lat="42.657109969171195" lon="13.583783858964113"><ele>908.0</ele><time>2026-04-18T11:22:27Z</time></trkpt><trkpt lat="42.65707134920079" lon="13.583986890714744"><ele>910.0</ele><time>2026-04-18T11:22:28Z</time></trkpt><trkpt lat="42.65703742611907" lon="13.58416921270636"><ele>912.0</ele><time>2026-04-18T11:22:29Z</time></trkpt><trkpt lat="42.65701933054998" lon="13.584369396781447"><ele>913.75</ele><time>2026-04-18T11:22:30Z</time></trkpt><trkpt lat="42.65700676243151" lon="13.584568434852276"><ele>915.5</ele><time>2026-04-18T11:22:31Z</time></trkpt><trkpt lat="42.657021758094345" lon="13.584743708006892"><ele>917.25</ele><time>2026-04-18T11:22:32Z</time></trkpt><trkpt lat="42.657030606166494" lon="13.584955771652368"><ele>919.0</ele><time>2026-04-18T11:22:33Z</time></trkpt><trkpt lat="42.65701754863414" lon="13.585185565430171"><ele>921.0</ele><time>2026-04-18T11:22:34Z</time></trkpt><trkpt lat="42.657012108646924" lon="13.585388783024452"><ele>923.0</ele><time>2026-04-18T11:22:35Z</time></trkpt><trkpt lat="42.65701515698425" lon="13.585568393007756"><ele>925.0</ele><time>2026-04-18T11:22:36Z</time></trkpt><trkpt lat="42.65699657771263" lon="13.58576362393499"><ele>927.0</ele><time>2026-04-18T11:22:37Z</time></trkpt><trkpt lat="42.65696398966324" lon="13.58594758091698"><ele>927.0</ele><time>2026-04-18T11:22:38Z</time></trkpt><trkpt lat="42.656933375942366" lon="13.586105897130404"><ele>927.0</ele><time>2026-04-18T11:22:39Z</time></trkpt><trkpt lat="42.65690532937729" lon="13.586232310269594"><ele>927.0</ele><time>2026-04-18T11:22:40Z</time></trkpt><trkpt lat="42.65692178670218" lon="13.586384448127772"><ele>927.0</ele><time>2026-04-18T11:22:42Z</time></trkpt><trkpt lat="42.656946952739254" lon="13.586237923862877"><ele>927.0</ele><time>2026-04-18T11:22:45Z</time></trkpt><trkpt lat="42.65703920543623" lon="13.586064186024608"><ele>927.0</ele><time>2026-04-18T11:22:46Z</time></trkpt><trkpt lat="42.65706656212019" lon="13.585892507285104"><ele>927.0</ele><time>2026-04-18T11:22:47Z</time></trkpt><trkpt lat="42.65709239372793" lon="13.585757117920053"><ele>927.0</ele><time>2026-04-18T11:22:48Z</time></trkpt><trkpt lat="42.65710463214597" lon="13.585593065888174"><ele>927.0</ele><time>2026-04-18T11:22:49Z</time></trkpt><trkpt lat="42.6571559613785" lon="13.585445754431948"><ele>925.0</ele><time>2026-04-18T11:22:50Z</time></trkpt><trkpt lat="42.65720966898646" lon="13.585265653237458"><ele>923.0</ele><time>2026-04-18T11:22:51Z</time></trkpt><trkpt lat="42.65724490052969" lon="13.585098743601415"><ele>921.0</ele><time>2026-04-18T11:22:52Z</time></trkpt><trkpt lat="42.65727822220437" lon="13.584927487136847"><ele>919.0</ele><time>2026-04-18T11:22:53Z</time></trkpt><trkpt lat="42.65731966831558" lon="13.584785572264858"><ele>919.0</ele><time>2026-04-18T11:22:54Z</time></trkpt><trkpt lat="42.657340381820156" lon="13.584648182482377"><ele>919.0000000000001</ele><time>2026-04-18T11:22:55Z</time></trkpt><trkpt lat="42.657396043008525" lon="13.584545083559421"><ele>919.0000000000001</ele><time>2026-04-18T11:22:57Z</time></trkpt><trkpt lat="42.6574565476802" lon="13.584428247527697"><ele>919.0</ele><time>2026-04-18T11:22:59Z</time></trkpt><trkpt lat="42.65751104658797" lon="13.584318609782901"><ele>919.0</ele><time>2026-04-18T11:23:01Z</time></trkpt><trkpt lat="42.65757630702249" lon="13.584194175143695"><ele>919.0</ele><time>2026-04-18T11:23:03Z</time></trkpt><trkpt lat="42.65769058994942" lon="13.584333887479975"><ele>919.0000000000001</ele><time>2026-04-18T11:23:05Z</time></trkpt><trkpt lat="42.65774829160018" lon="13.58446071762279"><ele>919.0000000000001</ele><time>2026-04-18T11:23:06Z</time></trkpt><trkpt lat="42.65773793982437" lon="13.584596669002922"><ele>919.0</ele><time>2026-04-18T11:23:08Z</time></trkpt><trkpt lat="42.65773831412286" lon="13.584707521283622"><ele>919.0</ele><time>2026-04-18T11:23:10Z</time></trkpt><trkpt lat="42.65777860149277" lon="13.584795465393976"><ele>918.9999999999999</ele><time>2026-04-18T11:23:13Z</time></trkpt><trkpt lat="42.65771819864886" lon="13.584670541386592"><ele>919.0</ele><time>2026-04-18T11:25:42Z</time></trkpt><trkpt lat="42.657659605955814" lon="13.584638571229032"><ele>919.0</ele><time>2026-04-18T11:25:57Z</time></trkpt><trkpt lat="42.657596643826835" lon="13.58467240588075"><ele>919.0</ele><time>2026-04-18T11:26:08Z</time></trkpt><trkpt lat="42.65756225574343" lon="13.584587848565388"><ele>918.9999999999999</ele><time>2026-04-18T11:33:14Z</time></trkpt><trkpt lat="42.65755281781222" lon="13.584470429390176"><ele>919.0</ele><time>2026-04-18T11:33:16Z</time></trkpt><trkpt lat="42.65739653381387" lon="13.584367464482602"><ele>919.0</ele><time>2026-04-18T11:33:20Z</time></trkpt><trkpt lat="42.65754992146292" lon="13.584745349375144"><ele>919.0</ele><time>2026-04-18T11:33:36.999Z</time></trkpt><trkpt lat="42.6575331780077" lon="13.584659729595035"><ele>919.0</ele><time>2026-04-18T11:33:41.999Z</time></trkpt><trkpt lat="42.65743676577034" lon="13.584506465134755"><ele>919.0</ele><time>2026-04-18T11:33:50Z</time></trkpt><trkpt lat="42.6573868001399" lon="13.584431240432641"><ele>919.0000000000001</ele><time>2026-04-18T11:33:52Z</time></trkpt><trkpt lat="42.657366529128645" lon="13.584345690672668"><ele>919.0000000000001</ele><time>2026-04-18T11:33:56Z</time></trkpt><trkpt lat="42.657361712634724" lon="13.58449584366453"><ele>919.0</ele><time>2026-04-18T11:34:14Z</time></trkpt><trkpt lat="42.6574847429183" lon="13.584551568694398"><ele>919.0</ele><time>2026-04-18T11:34:15Z</time></trkpt><trkpt lat="42.657494446088215" lon="13.584700921156639"><ele>919.0</ele><time>2026-04-18T11:34:32Z</time></trkpt><trkpt lat="42.657614792585896" lon="13.584568888528677"><ele>919.0</ele><time>2026-04-18T11:35:07Z</time></trkpt><trkpt lat="42.65745695355247" lon="13.584597217915906"><ele>919.0</ele><time>2026-04-18T11:35:09Z</time></trkpt><trkpt lat="42.657455640176316" lon="13.584501682421235"><ele>919.0</ele><time>2026-04-18T11:35:10Z</time></trkpt><trkpt lat="42.65744765564529" lon="13.58440035802565"><ele>912.0</ele><time>2026-04-18T11:35:13Z</time></trkpt><trkpt lat="42.65745498728632" lon="13.584509531307603"><ele>912.0</ele><time>2026-04-18T11:36:40Z</time></trkpt><trkpt lat="42.65761597086014" lon="13.58444762417449"><ele>912.0</ele><time>2026-04-18T11:39:03Z</time></trkpt><trkpt lat="42.65753932488298" lon="13.584482222626272"><ele>912.0</ele><time>2026-04-18T11:40:04.999Z</time></trkpt><trkpt lat="42.657491792808294" lon="13.584416732382266"><ele>912.0</ele><time>2026-04-18T11:40:18.999Z</time></trkpt></trkseg></trk></gpx>